<?xml version="1.0" encoding="UTF-8" standalone="no" ?>
<gpx xmlns="http://www.topografix.com/GPX/1/1" xmlns:xsi="http://www.w3.org/2001/XMLSchema-instance" xsi:schemaLocation="http://www.topografix.com/GPX/1/1 http://www.topografix.com/GPX/1/1/gpx.xsd" version="1.1" creator="VisuGPX - https://www.visugpx.com">
  <metadata>
    <name>Croix de Chamrousse</name>
    <desc><![CDATA[fofsjkndldslfhd klfhufhsughehfie]]></desc>
  </metadata>
  <trk>
    <name><![CDATA[10-DEC-16 16:42:28]]></name>
    <trkseg>
      <trkpt lat="45.11202" lon="5.87853">
        <ele>1668.51</ele>
        <time>2016-12-10T13:33:03Z</time>
      </trkpt>
      <trkpt lat="45.11202" lon="5.87854">
        <ele>1668.51</ele>
        <time>2016-12-10T13:33:09Z</time>
      </trkpt>
      <trkpt lat="45.11202" lon="5.87854">
        <ele>1674.27</ele>
        <time>2016-12-10T13:33:12Z</time>
      </trkpt>
      <trkpt lat="45.11202" lon="5.87855">
        <ele>1667.06</ele>
        <time>2016-12-10T13:33:13Z</time>
      </trkpt>
      <trkpt lat="45.11201" lon="5.87856">
        <ele>1670.91</ele>
        <time>2016-12-10T13:33:16Z</time>
      </trkpt>
      <trkpt lat="45.11202" lon="5.87858">
        <ele>1669.95</ele>
        <time>2016-12-10T13:33:23Z</time>
      </trkpt>
      <trkpt lat="45.11203" lon="5.87859">
        <ele>1669.95</ele>
        <time>2016-12-10T13:33:25Z</time>
      </trkpt>
      <trkpt lat="45.1122" lon="5.87867">
        <ele>1672.35</ele>
        <time>2016-12-10T13:33:39Z</time>
      </trkpt>
      <trkpt lat="45.11226" lon="5.87883">
        <ele>1674.27</ele>
        <time>2016-12-10T13:33:49Z</time>
      </trkpt>
      <trkpt lat="45.11226" lon="5.87884">
        <ele>1674.27</ele>
        <time>2016-12-10T13:33:50Z</time>
      </trkpt>
      <trkpt lat="45.11225" lon="5.87889">
        <ele>1674.27</ele>
        <time>2016-12-10T13:33:53Z</time>
      </trkpt>
      <trkpt lat="45.11227" lon="5.87895">
        <ele>1675.72</ele>
        <time>2016-12-10T13:33:57Z</time>
      </trkpt>
      <trkpt lat="45.11231" lon="5.87904">
        <ele>1676.68</ele>
        <time>2016-12-10T13:34:02Z</time>
      </trkpt>
      <trkpt lat="45.11244" lon="5.87905">
        <ele>1680.04</ele>
        <time>2016-12-10T13:34:12Z</time>
      </trkpt>
      <trkpt lat="45.11249" lon="5.87903">
        <ele>1680.04</ele>
        <time>2016-12-10T13:34:16Z</time>
      </trkpt>
      <trkpt lat="45.11265" lon="5.87905">
        <ele>1681.96</ele>
        <time>2016-12-10T13:34:28Z</time>
      </trkpt>
      <trkpt lat="45.11277" lon="5.87907">
        <ele>1682.93</ele>
        <time>2016-12-10T13:34:37Z</time>
      </trkpt>
      <trkpt lat="45.11285" lon="5.87909">
        <ele>1684.85</ele>
        <time>2016-12-10T13:34:43Z</time>
      </trkpt>
      <trkpt lat="45.11296" lon="5.8791">
        <ele>1686.77</ele>
        <time>2016-12-10T13:34:52Z</time>
      </trkpt>
      <trkpt lat="45.11298" lon="5.87911">
        <ele>1686.77</ele>
        <time>2016-12-10T13:34:53Z</time>
      </trkpt>
      <trkpt lat="45.1131" lon="5.87915">
        <ele>1688.21</ele>
        <time>2016-12-10T13:35:03Z</time>
      </trkpt>
      <trkpt lat="45.11315" lon="5.87921">
        <ele>1688.69</ele>
        <time>2016-12-10T13:35:08Z</time>
      </trkpt>
      <trkpt lat="45.11326" lon="5.87926">
        <ele>1690.14</ele>
        <time>2016-12-10T13:35:16Z</time>
      </trkpt>
      <trkpt lat="45.11333" lon="5.8793">
        <ele>1690.14</ele>
        <time>2016-12-10T13:35:22Z</time>
      </trkpt>
      <trkpt lat="45.1134" lon="5.87931">
        <ele>1691.58</ele>
        <time>2016-12-10T13:35:27Z</time>
      </trkpt>
      <trkpt lat="45.11354" lon="5.87937">
        <ele>1693.02</ele>
        <time>2016-12-10T13:35:38Z</time>
      </trkpt>
      <trkpt lat="45.11365" lon="5.87937">
        <ele>1694.46</ele>
        <time>2016-12-10T13:35:46Z</time>
      </trkpt>
      <trkpt lat="45.1137" lon="5.87939">
        <ele>1694.94</ele>
        <time>2016-12-10T13:35:51Z</time>
      </trkpt>
      <trkpt lat="45.11383" lon="5.87943">
        <ele>1697.34</ele>
        <time>2016-12-10T13:36:02Z</time>
      </trkpt>
      <trkpt lat="45.11386" lon="5.87946">
        <ele>1698.31</ele>
        <time>2016-12-10T13:36:05Z</time>
      </trkpt>
      <trkpt lat="45.11391" lon="5.87946">
        <ele>1700.71</ele>
        <time>2016-12-10T13:36:10Z</time>
      </trkpt>
      <trkpt lat="45.11394" lon="5.87946">
        <ele>1701.67</ele>
        <time>2016-12-10T13:36:13Z</time>
      </trkpt>
      <trkpt lat="45.11407" lon="5.87951">
        <ele>1702.15</ele>
        <time>2016-12-10T13:36:23Z</time>
      </trkpt>
      <trkpt lat="45.11421" lon="5.87947">
        <ele>1703.11</ele>
        <time>2016-12-10T13:36:34Z</time>
      </trkpt>
      <trkpt lat="45.11435" lon="5.87942">
        <ele>1704.07</ele>
        <time>2016-12-10T13:36:44Z</time>
      </trkpt>
      <trkpt lat="45.11451" lon="5.87939">
        <ele>1704.55</ele>
        <time>2016-12-10T13:36:56Z</time>
      </trkpt>
      <trkpt lat="45.11452" lon="5.87939">
        <ele>1704.55</ele>
        <time>2016-12-10T13:36:57Z</time>
      </trkpt>
      <trkpt lat="45.11461" lon="5.87939">
        <ele>1705.04</ele>
        <time>2016-12-10T13:37:04Z</time>
      </trkpt>
      <trkpt lat="45.11474" lon="5.87939">
        <ele>1706.96</ele>
        <time>2016-12-10T13:37:14Z</time>
      </trkpt>
      <trkpt lat="45.11479" lon="5.87939">
        <ele>1707.92</ele>
        <time>2016-12-10T13:37:18Z</time>
      </trkpt>
      <trkpt lat="45.11497" lon="5.87936">
        <ele>1710.32</ele>
        <time>2016-12-10T13:37:32Z</time>
      </trkpt>
      <trkpt lat="45.115" lon="5.87937">
        <ele>1710.8</ele>
        <time>2016-12-10T13:37:34Z</time>
      </trkpt>
      <trkpt lat="45.11517" lon="5.87941">
        <ele>1714.17</ele>
        <time>2016-12-10T13:37:48Z</time>
      </trkpt>
      <trkpt lat="45.11527" lon="5.87942">
        <ele>1713.21</ele>
        <time>2016-12-10T13:37:55Z</time>
      </trkpt>
      <trkpt lat="45.11537" lon="5.87944">
        <ele>1712.73</ele>
        <time>2016-12-10T13:38:03Z</time>
      </trkpt>
      <trkpt lat="45.11555" lon="5.87946">
        <ele>1712.25</ele>
        <time>2016-12-10T13:38:15Z</time>
      </trkpt>
      <trkpt lat="45.11559" lon="5.87946">
        <ele>1711.76</ele>
        <time>2016-12-10T13:38:18Z</time>
      </trkpt>
      <trkpt lat="45.11574" lon="5.87949">
        <ele>1712.25</ele>
        <time>2016-12-10T13:38:29Z</time>
      </trkpt>
      <trkpt lat="45.11588" lon="5.8795">
        <ele>1712.73</ele>
        <time>2016-12-10T13:38:39Z</time>
      </trkpt>
      <trkpt lat="45.11603" lon="5.87952">
        <ele>1712.73</ele>
        <time>2016-12-10T13:38:50Z</time>
      </trkpt>
      <trkpt lat="45.11621" lon="5.87954">
        <ele>1712.73</ele>
        <time>2016-12-10T13:39:02Z</time>
      </trkpt>
      <trkpt lat="45.11638" lon="5.87955">
        <ele>1711.76</ele>
        <time>2016-12-10T13:39:14Z</time>
      </trkpt>
      <trkpt lat="45.11653" lon="5.87955">
        <ele>1709.36</ele>
        <time>2016-12-10T13:39:25Z</time>
      </trkpt>
      <trkpt lat="45.11671" lon="5.8796">
        <ele>1708.4</ele>
        <time>2016-12-10T13:39:37Z</time>
      </trkpt>
      <trkpt lat="45.11677" lon="5.87962">
        <ele>1708.4</ele>
        <time>2016-12-10T13:39:41Z</time>
      </trkpt>
      <trkpt lat="45.11684" lon="5.87964">
        <ele>1709.84</ele>
        <time>2016-12-10T13:39:46Z</time>
      </trkpt>
      <trkpt lat="45.1169" lon="5.87967">
        <ele>1709.84</ele>
        <time>2016-12-10T13:39:51Z</time>
      </trkpt>
      <trkpt lat="45.11705" lon="5.8797">
        <ele>1709.36</ele>
        <time>2016-12-10T13:40:02Z</time>
      </trkpt>
      <trkpt lat="45.11721" lon="5.87973">
        <ele>1708.88</ele>
        <time>2016-12-10T13:40:13Z</time>
      </trkpt>
      <trkpt lat="45.11736" lon="5.87984">
        <ele>1708.88</ele>
        <time>2016-12-10T13:40:24Z</time>
      </trkpt>
      <trkpt lat="45.11747" lon="5.87999">
        <ele>1708.88</ele>
        <time>2016-12-10T13:40:34Z</time>
      </trkpt>
      <trkpt lat="45.11756" lon="5.88015">
        <ele>1709.36</ele>
        <time>2016-12-10T13:40:44Z</time>
      </trkpt>
      <trkpt lat="45.11768" lon="5.88029">
        <ele>1709.84</ele>
        <time>2016-12-10T13:40:54Z</time>
      </trkpt>
      <trkpt lat="45.1178" lon="5.88043">
        <ele>1711.76</ele>
        <time>2016-12-10T13:41:05Z</time>
      </trkpt>
      <trkpt lat="45.11792" lon="5.88053">
        <ele>1714.17</ele>
        <time>2016-12-10T13:41:16Z</time>
      </trkpt>
      <trkpt lat="45.11794" lon="5.88054">
        <ele>1715.13</ele>
        <time>2016-12-10T13:41:18Z</time>
      </trkpt>
      <trkpt lat="45.11805" lon="5.88062">
        <ele>1715.13</ele>
        <time>2016-12-10T13:41:27Z</time>
      </trkpt>
      <trkpt lat="45.11809" lon="5.88062">
        <ele>1715.13</ele>
        <time>2016-12-10T13:41:30Z</time>
      </trkpt>
      <trkpt lat="45.11817" lon="5.88062">
        <ele>1714.65</ele>
        <time>2016-12-10T13:41:35Z</time>
      </trkpt>
      <trkpt lat="45.11829" lon="5.88065">
        <ele>1715.61</ele>
        <time>2016-12-10T13:41:44Z</time>
      </trkpt>
      <trkpt lat="45.11847" lon="5.88071">
        <ele>1716.57</ele>
        <time>2016-12-10T13:41:57Z</time>
      </trkpt>
      <trkpt lat="45.11863" lon="5.88078">
        <ele>1717.53</ele>
        <time>2016-12-10T13:42:08Z</time>
      </trkpt>
      <trkpt lat="45.11873" lon="5.88088">
        <ele>1717.53</ele>
        <time>2016-12-10T13:42:18Z</time>
      </trkpt>
      <trkpt lat="45.11881" lon="5.88101">
        <ele>1717.53</ele>
        <time>2016-12-10T13:42:26Z</time>
      </trkpt>
      <trkpt lat="45.11893" lon="5.88111">
        <ele>1715.61</ele>
        <time>2016-12-10T13:42:36Z</time>
      </trkpt>
      <trkpt lat="45.11906" lon="5.8812">
        <ele>1715.13</ele>
        <time>2016-12-10T13:42:46Z</time>
      </trkpt>
      <trkpt lat="45.11918" lon="5.8813">
        <ele>1716.09</ele>
        <time>2016-12-10T13:42:56Z</time>
      </trkpt>
      <trkpt lat="45.11926" lon="5.88143">
        <ele>1717.53</ele>
        <time>2016-12-10T13:43:06Z</time>
      </trkpt>
      <trkpt lat="45.11929" lon="5.88154">
        <ele>1720.42</ele>
        <time>2016-12-10T13:43:14Z</time>
      </trkpt>
      <trkpt lat="45.11932" lon="5.88159">
        <ele>1720.42</ele>
        <time>2016-12-10T13:43:18Z</time>
      </trkpt>
      <trkpt lat="45.11938" lon="5.88167">
        <ele>1722.82</ele>
        <time>2016-12-10T13:43:25Z</time>
      </trkpt>
      <trkpt lat="45.11941" lon="5.88173">
        <ele>1723.3</ele>
        <time>2016-12-10T13:43:29Z</time>
      </trkpt>
      <trkpt lat="45.11945" lon="5.88176">
        <ele>1723.3</ele>
        <time>2016-12-10T13:43:33Z</time>
      </trkpt>
      <trkpt lat="45.11953" lon="5.88188">
        <ele>1722.34</ele>
        <time>2016-12-10T13:43:44Z</time>
      </trkpt>
      <trkpt lat="45.11957" lon="5.88193">
        <ele>1722.34</ele>
        <time>2016-12-10T13:43:51Z</time>
      </trkpt>
      <trkpt lat="45.11961" lon="5.88196">
        <ele>1721.86</ele>
        <time>2016-12-10T13:43:57Z</time>
      </trkpt>
      <trkpt lat="45.11962" lon="5.88197">
        <ele>1721.38</ele>
        <time>2016-12-10T13:43:59Z</time>
      </trkpt>
      <trkpt lat="45.11972" lon="5.88211">
        <ele>1719.46</ele>
        <time>2016-12-10T13:44:10Z</time>
      </trkpt>
      <trkpt lat="45.11976" lon="5.88213">
        <ele>1718.01</ele>
        <time>2016-12-10T13:44:14Z</time>
      </trkpt>
      <trkpt lat="45.1198" lon="5.88218">
        <ele>1717.53</ele>
        <time>2016-12-10T13:44:19Z</time>
      </trkpt>
      <trkpt lat="45.11985" lon="5.88224">
        <ele>1716.57</ele>
        <time>2016-12-10T13:44:25Z</time>
      </trkpt>
      <trkpt lat="45.11989" lon="5.88226">
        <ele>1716.09</ele>
        <time>2016-12-10T13:44:30Z</time>
      </trkpt>
      <trkpt lat="45.11995" lon="5.88228">
        <ele>1715.13</ele>
        <time>2016-12-10T13:44:34Z</time>
      </trkpt>
      <trkpt lat="45.12001" lon="5.88236">
        <ele>1714.65</ele>
        <time>2016-12-10T13:44:39Z</time>
      </trkpt>
      <trkpt lat="45.12011" lon="5.88253">
        <ele>1716.57</ele>
        <time>2016-12-10T13:44:51Z</time>
      </trkpt>
      <trkpt lat="45.12018" lon="5.8827">
        <ele>1718.01</ele>
        <time>2016-12-10T13:45:01Z</time>
      </trkpt>
      <trkpt lat="45.12022" lon="5.88275">
        <ele>1718.97</ele>
        <time>2016-12-10T13:45:05Z</time>
      </trkpt>
      <trkpt lat="45.1203" lon="5.88292">
        <ele>1719.94</ele>
        <time>2016-12-10T13:45:16Z</time>
      </trkpt>
      <trkpt lat="45.12032" lon="5.88295">
        <ele>1719.94</ele>
        <time>2016-12-10T13:45:18Z</time>
      </trkpt>
      <trkpt lat="45.12034" lon="5.88298">
        <ele>1720.42</ele>
        <time>2016-12-10T13:45:20Z</time>
      </trkpt>
      <trkpt lat="45.12043" lon="5.88313">
        <ele>1721.38</ele>
        <time>2016-12-10T13:45:31Z</time>
      </trkpt>
      <trkpt lat="45.12052" lon="5.88325">
        <ele>1723.78</ele>
        <time>2016-12-10T13:45:42Z</time>
      </trkpt>
      <trkpt lat="45.12063" lon="5.88336">
        <ele>1726.67</ele>
        <time>2016-12-10T13:45:53Z</time>
      </trkpt>
      <trkpt lat="45.1207" lon="5.88341">
        <ele>1728.59</ele>
        <time>2016-12-10T13:46:00Z</time>
      </trkpt>
      <trkpt lat="45.12073" lon="5.88345">
        <ele>1729.55</ele>
        <time>2016-12-10T13:46:04Z</time>
      </trkpt>
      <trkpt lat="45.12073" lon="5.8835">
        <ele>1730.51</ele>
        <time>2016-12-10T13:46:07Z</time>
      </trkpt>
      <trkpt lat="45.12081" lon="5.88362">
        <ele>1732.43</ele>
        <time>2016-12-10T13:46:17Z</time>
      </trkpt>
      <trkpt lat="45.12095" lon="5.88364">
        <ele>1733.88</ele>
        <time>2016-12-10T13:46:27Z</time>
      </trkpt>
      <trkpt lat="45.12105" lon="5.8836">
        <ele>1734.84</ele>
        <time>2016-12-10T13:46:36Z</time>
      </trkpt>
      <trkpt lat="45.12108" lon="5.88353">
        <ele>1735.8</ele>
        <time>2016-12-10T13:46:40Z</time>
      </trkpt>
      <trkpt lat="45.1211" lon="5.88353">
        <ele>1736.28</ele>
        <time>2016-12-10T13:46:42Z</time>
      </trkpt>
      <trkpt lat="45.12122" lon="5.88344">
        <ele>1735.32</ele>
        <time>2016-12-10T13:46:53Z</time>
      </trkpt>
      <trkpt lat="45.12125" lon="5.88342">
        <ele>1735.32</ele>
        <time>2016-12-10T13:46:56Z</time>
      </trkpt>
      <trkpt lat="45.12134" lon="5.88339">
        <ele>1736.76</ele>
        <time>2016-12-10T13:47:05Z</time>
      </trkpt>
      <trkpt lat="45.12134" lon="5.88337">
        <ele>1737.72</ele>
        <time>2016-12-10T13:47:06Z</time>
      </trkpt>
      <trkpt lat="45.12139" lon="5.88339">
        <ele>1738.68</ele>
        <time>2016-12-10T13:47:10Z</time>
      </trkpt>
      <trkpt lat="45.12147" lon="5.88342">
        <ele>1742.05</ele>
        <time>2016-12-10T13:47:19Z</time>
      </trkpt>
      <trkpt lat="45.12147" lon="5.88342">
        <ele>1742.05</ele>
        <time>2016-12-10T13:47:20Z</time>
      </trkpt>
      <trkpt lat="45.12148" lon="5.88343">
        <ele>1742.53</ele>
        <time>2016-12-10T13:47:21Z</time>
      </trkpt>
      <trkpt lat="45.12161" lon="5.88356">
        <ele>1743.01</ele>
        <time>2016-12-10T13:47:33Z</time>
      </trkpt>
      <trkpt lat="45.12173" lon="5.88368">
        <ele>1743.01</ele>
        <time>2016-12-10T13:47:44Z</time>
      </trkpt>
      <trkpt lat="45.12176" lon="5.88374">
        <ele>1743.49</ele>
        <time>2016-12-10T13:47:48Z</time>
      </trkpt>
      <trkpt lat="45.12187" lon="5.88385">
        <ele>1741.57</ele>
        <time>2016-12-10T13:48:00Z</time>
      </trkpt>
      <trkpt lat="45.12187" lon="5.88386">
        <ele>1741.57</ele>
        <time>2016-12-10T13:48:01Z</time>
      </trkpt>
      <trkpt lat="45.12191" lon="5.88394">
        <ele>1741.57</ele>
        <time>2016-12-10T13:48:06Z</time>
      </trkpt>
      <trkpt lat="45.12202" lon="5.88407">
        <ele>1742.05</ele>
        <time>2016-12-10T13:48:16Z</time>
      </trkpt>
      <trkpt lat="45.12214" lon="5.88426">
        <ele>1741.57</ele>
        <time>2016-12-10T13:48:29Z</time>
      </trkpt>
      <trkpt lat="45.1222" lon="5.88436">
        <ele>1742.53</ele>
        <time>2016-12-10T13:48:36Z</time>
      </trkpt>
      <trkpt lat="45.12232" lon="5.88454">
        <ele>1744.45</ele>
        <time>2016-12-10T13:48:49Z</time>
      </trkpt>
      <trkpt lat="45.12245" lon="5.88467">
        <ele>1745.89</ele>
        <time>2016-12-10T13:49:00Z</time>
      </trkpt>
      <trkpt lat="45.12255" lon="5.88481">
        <ele>1744.93</ele>
        <time>2016-12-10T13:49:11Z</time>
      </trkpt>
      <trkpt lat="45.12262" lon="5.88501">
        <ele>1742.05</ele>
        <time>2016-12-10T13:49:23Z</time>
      </trkpt>
      <trkpt lat="45.12274" lon="5.8852">
        <ele>1738.68</ele>
        <time>2016-12-10T13:49:36Z</time>
      </trkpt>
      <trkpt lat="45.12285" lon="5.88536">
        <ele>1737.72</ele>
        <time>2016-12-10T13:49:47Z</time>
      </trkpt>
      <trkpt lat="45.12295" lon="5.88545">
        <ele>1737.72</ele>
        <time>2016-12-10T13:49:55Z</time>
      </trkpt>
      <trkpt lat="45.12309" lon="5.88555">
        <ele>1738.2</ele>
        <time>2016-12-10T13:50:07Z</time>
      </trkpt>
      <trkpt lat="45.12312" lon="5.88558">
        <ele>1738.68</ele>
        <time>2016-12-10T13:50:09Z</time>
      </trkpt>
      <trkpt lat="45.12319" lon="5.88568">
        <ele>1740.6</ele>
        <time>2016-12-10T13:50:18Z</time>
      </trkpt>
      <trkpt lat="45.12321" lon="5.88569">
        <ele>1741.57</ele>
        <time>2016-12-10T13:50:20Z</time>
      </trkpt>
      <trkpt lat="45.12333" lon="5.88573">
        <ele>1742.53</ele>
        <time>2016-12-10T13:50:30Z</time>
      </trkpt>
      <trkpt lat="45.12347" lon="5.88577">
        <ele>1743.49</ele>
        <time>2016-12-10T13:50:41Z</time>
      </trkpt>
      <trkpt lat="45.12353" lon="5.8858">
        <ele>1743.49</ele>
        <time>2016-12-10T13:50:46Z</time>
      </trkpt>
      <trkpt lat="45.12369" lon="5.88579">
        <ele>1743.49</ele>
        <time>2016-12-10T13:50:58Z</time>
      </trkpt>
      <trkpt lat="45.12383" lon="5.88586">
        <ele>1743.97</ele>
        <time>2016-12-10T13:51:09Z</time>
      </trkpt>
      <trkpt lat="45.12393" lon="5.88602">
        <ele>1743.49</ele>
        <time>2016-12-10T13:51:21Z</time>
      </trkpt>
      <trkpt lat="45.12403" lon="5.88616">
        <ele>1744.93</ele>
        <time>2016-12-10T13:51:32Z</time>
      </trkpt>
      <trkpt lat="45.12412" lon="5.88633">
        <ele>1744.93</ele>
        <time>2016-12-10T13:51:44Z</time>
      </trkpt>
      <trkpt lat="45.12416" lon="5.88639">
        <ele>1744.93</ele>
        <time>2016-12-10T13:51:49Z</time>
      </trkpt>
      <trkpt lat="45.12417" lon="5.88646">
        <ele>1745.89</ele>
        <time>2016-12-10T13:51:53Z</time>
      </trkpt>
      <trkpt lat="45.12419" lon="5.88649">
        <ele>1745.89</ele>
        <time>2016-12-10T13:51:55Z</time>
      </trkpt>
      <trkpt lat="45.12418" lon="5.88667">
        <ele>1748.78</ele>
        <time>2016-12-10T13:52:06Z</time>
      </trkpt>
      <trkpt lat="45.12417" lon="5.88676">
        <ele>1750.7</ele>
        <time>2016-12-10T13:52:12Z</time>
      </trkpt>
      <trkpt lat="45.12415" lon="5.88692">
        <ele>1753.1</ele>
        <time>2016-12-10T13:52:22Z</time>
      </trkpt>
      <trkpt lat="45.1242" lon="5.8871">
        <ele>1754.54</ele>
        <time>2016-12-10T13:52:33Z</time>
      </trkpt>
      <trkpt lat="45.12428" lon="5.88724">
        <ele>1755.02</ele>
        <time>2016-12-10T13:52:43Z</time>
      </trkpt>
      <trkpt lat="45.1244" lon="5.88739">
        <ele>1755.99</ele>
        <time>2016-12-10T13:52:54Z</time>
      </trkpt>
      <trkpt lat="45.12448" lon="5.88746">
        <ele>1757.43</ele>
        <time>2016-12-10T13:53:01Z</time>
      </trkpt>
      <trkpt lat="45.12453" lon="5.8875">
        <ele>1758.39</ele>
        <time>2016-12-10T13:53:06Z</time>
      </trkpt>
      <trkpt lat="45.12462" lon="5.88758">
        <ele>1759.35</ele>
        <time>2016-12-10T13:53:16Z</time>
      </trkpt>
      <trkpt lat="45.12464" lon="5.8876">
        <ele>1760.31</ele>
        <time>2016-12-10T13:53:18Z</time>
      </trkpt>
      <trkpt lat="45.12473" lon="5.88767">
        <ele>1762.71</ele>
        <time>2016-12-10T13:53:27Z</time>
      </trkpt>
      <trkpt lat="45.12484" lon="5.88769">
        <ele>1766.08</ele>
        <time>2016-12-10T13:53:39Z</time>
      </trkpt>
      <trkpt lat="45.1249" lon="5.88771">
        <ele>1767.52</ele>
        <time>2016-12-10T13:53:45Z</time>
      </trkpt>
      <trkpt lat="45.12493" lon="5.88775">
        <ele>1769.44</ele>
        <time>2016-12-10T13:53:51Z</time>
      </trkpt>
      <trkpt lat="45.12494" lon="5.88776">
        <ele>1770.41</ele>
        <time>2016-12-10T13:53:54Z</time>
      </trkpt>
      <trkpt lat="45.12496" lon="5.88777">
        <ele>1770.89</ele>
        <time>2016-12-10T13:53:56Z</time>
      </trkpt>
      <trkpt lat="45.12504" lon="5.88779">
        <ele>1773.77</ele>
        <time>2016-12-10T13:54:04Z</time>
      </trkpt>
      <trkpt lat="45.12514" lon="5.88788">
        <ele>1777.13</ele>
        <time>2016-12-10T13:54:16Z</time>
      </trkpt>
      <trkpt lat="45.12516" lon="5.8879">
        <ele>1777.61</ele>
        <time>2016-12-10T13:54:19Z</time>
      </trkpt>
      <trkpt lat="45.12517" lon="5.88792">
        <ele>1777.61</ele>
        <time>2016-12-10T13:54:21Z</time>
      </trkpt>
      <trkpt lat="45.12519" lon="5.88795">
        <ele>1779.06</ele>
        <time>2016-12-10T13:54:24Z</time>
      </trkpt>
      <trkpt lat="45.12528" lon="5.88796">
        <ele>1780.5</ele>
        <time>2016-12-10T13:54:32Z</time>
      </trkpt>
      <trkpt lat="45.12536" lon="5.88792">
        <ele>1782.42</ele>
        <time>2016-12-10T13:54:42Z</time>
      </trkpt>
      <trkpt lat="45.12538" lon="5.88792">
        <ele>1783.86</ele>
        <time>2016-12-10T13:54:44Z</time>
      </trkpt>
      <trkpt lat="45.12544" lon="5.88789">
        <ele>1783.86</ele>
        <time>2016-12-10T13:54:53Z</time>
      </trkpt>
      <trkpt lat="45.12547" lon="5.88794">
        <ele>1784.34</ele>
        <time>2016-12-10T13:55:01Z</time>
      </trkpt>
      <trkpt lat="45.12548" lon="5.88795">
        <ele>1783.86</ele>
        <time>2016-12-10T13:55:03Z</time>
      </trkpt>
      <trkpt lat="45.12552" lon="5.88813">
        <ele>1785.79</ele>
        <time>2016-12-10T13:55:15Z</time>
      </trkpt>
      <trkpt lat="45.12557" lon="5.88821">
        <ele>1787.71</ele>
        <time>2016-12-10T13:55:22Z</time>
      </trkpt>
      <trkpt lat="45.12565" lon="5.88829">
        <ele>1789.15</ele>
        <time>2016-12-10T13:55:31Z</time>
      </trkpt>
      <trkpt lat="45.12574" lon="5.88838">
        <ele>1791.07</ele>
        <time>2016-12-10T13:55:41Z</time>
      </trkpt>
      <trkpt lat="45.12577" lon="5.88839">
        <ele>1791.07</ele>
        <time>2016-12-10T13:55:43Z</time>
      </trkpt>
      <trkpt lat="45.12582" lon="5.8885">
        <ele>1793.96</ele>
        <time>2016-12-10T13:55:53Z</time>
      </trkpt>
      <trkpt lat="45.12582" lon="5.88851">
        <ele>1794.44</ele>
        <time>2016-12-10T13:55:54Z</time>
      </trkpt>
      <trkpt lat="45.12587" lon="5.88854">
        <ele>1795.88</ele>
        <time>2016-12-10T13:56:00Z</time>
      </trkpt>
      <trkpt lat="45.12589" lon="5.88859">
        <ele>1797.32</ele>
        <time>2016-12-10T13:56:04Z</time>
      </trkpt>
      <trkpt lat="45.12594" lon="5.88867">
        <ele>1799.24</ele>
        <time>2016-12-10T13:56:14Z</time>
      </trkpt>
      <trkpt lat="45.12595" lon="5.88867">
        <ele>1799.73</ele>
        <time>2016-12-10T13:56:27Z</time>
      </trkpt>
      <trkpt lat="45.12598" lon="5.88882">
        <ele>1800.69</ele>
        <time>2016-12-10T13:56:37Z</time>
      </trkpt>
      <trkpt lat="45.12598" lon="5.8889">
        <ele>1801.65</ele>
        <time>2016-12-10T13:56:48Z</time>
      </trkpt>
      <trkpt lat="45.12598" lon="5.88891">
        <ele>1801.65</ele>
        <time>2016-12-10T13:56:54Z</time>
      </trkpt>
      <trkpt lat="45.12598" lon="5.88893">
        <ele>1801.65</ele>
        <time>2016-12-10T13:56:56Z</time>
      </trkpt>
      <trkpt lat="45.12598" lon="5.88896">
        <ele>1802.61</ele>
        <time>2016-12-10T13:56:58Z</time>
      </trkpt>
      <trkpt lat="45.12597" lon="5.88898">
        <ele>1802.61</ele>
        <time>2016-12-10T13:57:01Z</time>
      </trkpt>
      <trkpt lat="45.12581" lon="5.88891">
        <ele>1804.05</ele>
        <time>2016-12-10T13:57:13Z</time>
      </trkpt>
      <trkpt lat="45.12567" lon="5.88883">
        <ele>1804.05</ele>
        <time>2016-12-10T13:57:24Z</time>
      </trkpt>
      <trkpt lat="45.12553" lon="5.88875">
        <ele>1804.53</ele>
        <time>2016-12-10T13:57:35Z</time>
      </trkpt>
      <trkpt lat="45.12544" lon="5.88875">
        <ele>1806.45</ele>
        <time>2016-12-10T13:57:43Z</time>
      </trkpt>
      <trkpt lat="45.12538" lon="5.88889">
        <ele>1807.9</ele>
        <time>2016-12-10T13:57:53Z</time>
      </trkpt>
      <trkpt lat="45.12538" lon="5.8889">
        <ele>1808.38</ele>
        <time>2016-12-10T13:57:54Z</time>
      </trkpt>
      <trkpt lat="45.12537" lon="5.88905">
        <ele>1810.3</ele>
        <time>2016-12-10T13:58:04Z</time>
      </trkpt>
      <trkpt lat="45.12537" lon="5.88907">
        <ele>1809.82</ele>
        <time>2016-12-10T13:58:05Z</time>
      </trkpt>
      <trkpt lat="45.12537" lon="5.88913">
        <ele>1810.78</ele>
        <time>2016-12-10T13:58:10Z</time>
      </trkpt>
      <trkpt lat="45.12533" lon="5.88929">
        <ele>1812.7</ele>
        <time>2016-12-10T13:58:20Z</time>
      </trkpt>
      <trkpt lat="45.12532" lon="5.88934">
        <ele>1812.7</ele>
        <time>2016-12-10T13:58:23Z</time>
      </trkpt>
      <trkpt lat="45.12531" lon="5.88937">
        <ele>1813.66</ele>
        <time>2016-12-10T13:58:25Z</time>
      </trkpt>
      <trkpt lat="45.12531" lon="5.8894">
        <ele>1813.66</ele>
        <time>2016-12-10T13:58:27Z</time>
      </trkpt>
      <trkpt lat="45.12527" lon="5.88956">
        <ele>1816.07</ele>
        <time>2016-12-10T13:58:38Z</time>
      </trkpt>
      <trkpt lat="45.12531" lon="5.88968">
        <ele>1817.51</ele>
        <time>2016-12-10T13:58:47Z</time>
      </trkpt>
      <trkpt lat="45.12535" lon="5.88978">
        <ele>1819.43</ele>
        <time>2016-12-10T13:58:54Z</time>
      </trkpt>
      <trkpt lat="45.12537" lon="5.88984">
        <ele>1820.39</ele>
        <time>2016-12-10T13:59:00Z</time>
      </trkpt>
      <trkpt lat="45.1254" lon="5.88996">
        <ele>1823.76</ele>
        <time>2016-12-10T13:59:10Z</time>
      </trkpt>
      <trkpt lat="45.1254" lon="5.88999">
        <ele>1824.24</ele>
        <time>2016-12-10T13:59:13Z</time>
      </trkpt>
      <trkpt lat="45.1254" lon="5.8901">
        <ele>1827.12</ele>
        <time>2016-12-10T13:59:23Z</time>
      </trkpt>
      <trkpt lat="45.12539" lon="5.89011">
        <ele>1827.6</ele>
        <time>2016-12-10T13:59:25Z</time>
      </trkpt>
      <trkpt lat="45.12542" lon="5.89017">
        <ele>1829.53</ele>
        <time>2016-12-10T13:59:32Z</time>
      </trkpt>
      <trkpt lat="45.12544" lon="5.89026">
        <ele>1832.89</ele>
        <time>2016-12-10T13:59:42Z</time>
      </trkpt>
      <trkpt lat="45.12543" lon="5.8903">
        <ele>1833.85</ele>
        <time>2016-12-10T13:59:47Z</time>
      </trkpt>
      <trkpt lat="45.12543" lon="5.89035">
        <ele>1835.29</ele>
        <time>2016-12-10T13:59:51Z</time>
      </trkpt>
      <trkpt lat="45.12545" lon="5.89039">
        <ele>1836.26</ele>
        <time>2016-12-10T13:59:56Z</time>
      </trkpt>
      <trkpt lat="45.12548" lon="5.89041">
        <ele>1837.7</ele>
        <time>2016-12-10T14:00:01Z</time>
      </trkpt>
      <trkpt lat="45.12555" lon="5.89046">
        <ele>1840.1</ele>
        <time>2016-12-10T14:00:11Z</time>
      </trkpt>
      <trkpt lat="45.12557" lon="5.89047">
        <ele>1841.54</ele>
        <time>2016-12-10T14:00:14Z</time>
      </trkpt>
      <trkpt lat="45.12564" lon="5.89049">
        <ele>1843.47</ele>
        <time>2016-12-10T14:00:21Z</time>
      </trkpt>
      <trkpt lat="45.12573" lon="5.89055">
        <ele>1845.39</ele>
        <time>2016-12-10T14:00:32Z</time>
      </trkpt>
      <trkpt lat="45.12573" lon="5.89055">
        <ele>1845.39</ele>
        <time>2016-12-10T14:00:33Z</time>
      </trkpt>
      <trkpt lat="45.12579" lon="5.89066">
        <ele>1848.27</ele>
        <time>2016-12-10T14:00:43Z</time>
      </trkpt>
      <trkpt lat="45.12579" lon="5.89067">
        <ele>1848.27</ele>
        <time>2016-12-10T14:00:44Z</time>
      </trkpt>
      <trkpt lat="45.12581" lon="5.89071">
        <ele>1849.23</ele>
        <time>2016-12-10T14:00:48Z</time>
      </trkpt>
      <trkpt lat="45.12586" lon="5.89082">
        <ele>1851.16</ele>
        <time>2016-12-10T14:00:57Z</time>
      </trkpt>
      <trkpt lat="45.12584" lon="5.89097">
        <ele>1852.6</ele>
        <time>2016-12-10T14:01:07Z</time>
      </trkpt>
      <trkpt lat="45.12583" lon="5.8911">
        <ele>1854.04</ele>
        <time>2016-12-10T14:01:17Z</time>
      </trkpt>
      <trkpt lat="45.12583" lon="5.89121">
        <ele>1855.48</ele>
        <time>2016-12-10T14:01:25Z</time>
      </trkpt>
      <trkpt lat="45.12583" lon="5.89129">
        <ele>1857.4</ele>
        <time>2016-12-10T14:01:31Z</time>
      </trkpt>
      <trkpt lat="45.12583" lon="5.89132">
        <ele>1858.37</ele>
        <time>2016-12-10T14:01:33Z</time>
      </trkpt>
      <trkpt lat="45.12583" lon="5.89145">
        <ele>1860.77</ele>
        <time>2016-12-10T14:01:44Z</time>
      </trkpt>
      <trkpt lat="45.12583" lon="5.89151">
        <ele>1861.73</ele>
        <time>2016-12-10T14:01:48Z</time>
      </trkpt>
      <trkpt lat="45.12585" lon="5.89171">
        <ele>1864.61</ele>
        <time>2016-12-10T14:02:02Z</time>
      </trkpt>
      <trkpt lat="45.12585" lon="5.89177">
        <ele>1865.58</ele>
        <time>2016-12-10T14:02:06Z</time>
      </trkpt>
      <trkpt lat="45.12582" lon="5.89185">
        <ele>1867.02</ele>
        <time>2016-12-10T14:02:13Z</time>
      </trkpt>
      <trkpt lat="45.12578" lon="5.89189">
        <ele>1867.5</ele>
        <time>2016-12-10T14:02:17Z</time>
      </trkpt>
      <trkpt lat="45.12568" lon="5.89186">
        <ele>1870.38</ele>
        <time>2016-12-10T14:02:27Z</time>
      </trkpt>
      <trkpt lat="45.12563" lon="5.89184">
        <ele>1871.34</ele>
        <time>2016-12-10T14:02:32Z</time>
      </trkpt>
      <trkpt lat="45.12552" lon="5.89178">
        <ele>1872.79</ele>
        <time>2016-12-10T14:02:42Z</time>
      </trkpt>
      <trkpt lat="45.12551" lon="5.89177">
        <ele>1872.79</ele>
        <time>2016-12-10T14:02:43Z</time>
      </trkpt>
      <trkpt lat="45.12549" lon="5.89175">
        <ele>1873.27</ele>
        <time>2016-12-10T14:02:45Z</time>
      </trkpt>
      <trkpt lat="45.12539" lon="5.89172">
        <ele>1874.71</ele>
        <time>2016-12-10T14:02:55Z</time>
      </trkpt>
      <trkpt lat="45.12533" lon="5.89175">
        <ele>1876.63</ele>
        <time>2016-12-10T14:03:03Z</time>
      </trkpt>
      <trkpt lat="45.12532" lon="5.89175">
        <ele>1877.11</ele>
        <time>2016-12-10T14:03:04Z</time>
      </trkpt>
      <trkpt lat="45.12526" lon="5.89171">
        <ele>1878.55</ele>
        <time>2016-12-10T14:03:12Z</time>
      </trkpt>
      <trkpt lat="45.12519" lon="5.89168">
        <ele>1880.48</ele>
        <time>2016-12-10T14:03:20Z</time>
      </trkpt>
      <trkpt lat="45.12512" lon="5.89166">
        <ele>1880.48</ele>
        <time>2016-12-10T14:03:25Z</time>
      </trkpt>
      <trkpt lat="45.12507" lon="5.89165">
        <ele>1880.96</ele>
        <time>2016-12-10T14:03:31Z</time>
      </trkpt>
      <trkpt lat="45.12503" lon="5.89167">
        <ele>1882.88</ele>
        <time>2016-12-10T14:03:35Z</time>
      </trkpt>
      <trkpt lat="45.12499" lon="5.89169">
        <ele>1882.88</ele>
        <time>2016-12-10T14:03:39Z</time>
      </trkpt>
      <trkpt lat="45.12494" lon="5.89181">
        <ele>1884.32</ele>
        <time>2016-12-10T14:03:50Z</time>
      </trkpt>
      <trkpt lat="45.12494" lon="5.8918">
        <ele>1884.32</ele>
        <time>2016-12-10T14:03:53Z</time>
      </trkpt>
      <trkpt lat="45.12494" lon="5.89183">
        <ele>1884.32</ele>
        <time>2016-12-10T14:03:55Z</time>
      </trkpt>
      <trkpt lat="45.12495" lon="5.89193">
        <ele>1885.76</ele>
        <time>2016-12-10T14:04:01Z</time>
      </trkpt>
      <trkpt lat="45.12496" lon="5.89196">
        <ele>1885.76</ele>
        <time>2016-12-10T14:04:03Z</time>
      </trkpt>
      <trkpt lat="45.12499" lon="5.89206">
        <ele>1886.72</ele>
        <time>2016-12-10T14:04:11Z</time>
      </trkpt>
      <trkpt lat="45.12505" lon="5.89216">
        <ele>1888.65</ele>
        <time>2016-12-10T14:04:20Z</time>
      </trkpt>
      <trkpt lat="45.12508" lon="5.8922">
        <ele>1889.61</ele>
        <time>2016-12-10T14:04:25Z</time>
      </trkpt>
      <trkpt lat="45.12509" lon="5.89222">
        <ele>1890.09</ele>
        <time>2016-12-10T14:04:27Z</time>
      </trkpt>
      <trkpt lat="45.12514" lon="5.89231">
        <ele>1892.01</ele>
        <time>2016-12-10T14:04:35Z</time>
      </trkpt>
      <trkpt lat="45.12516" lon="5.89246">
        <ele>1894.42</ele>
        <time>2016-12-10T14:04:46Z</time>
      </trkpt>
      <trkpt lat="45.12517" lon="5.89253">
        <ele>1895.38</ele>
        <time>2016-12-10T14:04:52Z</time>
      </trkpt>
      <trkpt lat="45.1252" lon="5.89262">
        <ele>1897.78</ele>
        <time>2016-12-10T14:05:01Z</time>
      </trkpt>
      <trkpt lat="45.12522" lon="5.89265">
        <ele>1898.74</ele>
        <time>2016-12-10T14:05:05Z</time>
      </trkpt>
      <trkpt lat="45.12524" lon="5.8927">
        <ele>1899.22</ele>
        <time>2016-12-10T14:05:09Z</time>
      </trkpt>
      <trkpt lat="45.12525" lon="5.89275">
        <ele>1898.74</ele>
        <time>2016-12-10T14:05:13Z</time>
      </trkpt>
      <trkpt lat="45.12531" lon="5.89287">
        <ele>1900.18</ele>
        <time>2016-12-10T14:05:23Z</time>
      </trkpt>
      <trkpt lat="45.12533" lon="5.89297">
        <ele>1901.63</ele>
        <time>2016-12-10T14:05:32Z</time>
      </trkpt>
      <trkpt lat="45.12533" lon="5.89298">
        <ele>1902.11</ele>
        <time>2016-12-10T14:05:33Z</time>
      </trkpt>
      <trkpt lat="45.12534" lon="5.89307">
        <ele>1904.03</ele>
        <time>2016-12-10T14:05:42Z</time>
      </trkpt>
      <trkpt lat="45.12537" lon="5.89309">
        <ele>1906.43</ele>
        <time>2016-12-10T14:05:48Z</time>
      </trkpt>
      <trkpt lat="45.1254" lon="5.89315">
        <ele>1908.35</ele>
        <time>2016-12-10T14:05:56Z</time>
      </trkpt>
      <trkpt lat="45.1254" lon="5.89318">
        <ele>1908.83</ele>
        <time>2016-12-10T14:05:58Z</time>
      </trkpt>
      <trkpt lat="45.12542" lon="5.89324">
        <ele>1910.76</ele>
        <time>2016-12-10T14:06:05Z</time>
      </trkpt>
      <trkpt lat="45.12545" lon="5.8933">
        <ele>1912.2</ele>
        <time>2016-12-10T14:06:13Z</time>
      </trkpt>
      <trkpt lat="45.12546" lon="5.89331">
        <ele>1912.68</ele>
        <time>2016-12-10T14:06:14Z</time>
      </trkpt>
      <trkpt lat="45.12551" lon="5.89333">
        <ele>1913.64</ele>
        <time>2016-12-10T14:06:20Z</time>
      </trkpt>
      <trkpt lat="45.12553" lon="5.89339">
        <ele>1915.56</ele>
        <time>2016-12-10T14:06:29Z</time>
      </trkpt>
      <trkpt lat="45.12551" lon="5.89346">
        <ele>1917.49</ele>
        <time>2016-12-10T14:06:38Z</time>
      </trkpt>
      <trkpt lat="45.1255" lon="5.89351">
        <ele>1918.45</ele>
        <time>2016-12-10T14:06:43Z</time>
      </trkpt>
      <trkpt lat="45.12549" lon="5.89353">
        <ele>1918.93</ele>
        <time>2016-12-10T14:06:45Z</time>
      </trkpt>
      <trkpt lat="45.1255" lon="5.89356">
        <ele>1919.41</ele>
        <time>2016-12-10T14:06:48Z</time>
      </trkpt>
      <trkpt lat="45.12552" lon="5.89365">
        <ele>1920.85</ele>
        <time>2016-12-10T14:06:57Z</time>
      </trkpt>
      <trkpt lat="45.1255" lon="5.89369">
        <ele>1921.81</ele>
        <time>2016-12-10T14:07:08Z</time>
      </trkpt>
      <trkpt lat="45.12548" lon="5.89378">
        <ele>1924.22</ele>
        <time>2016-12-10T14:07:16Z</time>
      </trkpt>
      <trkpt lat="45.12549" lon="5.89386">
        <ele>1925.66</ele>
        <time>2016-12-10T14:07:24Z</time>
      </trkpt>
      <trkpt lat="45.12552" lon="5.89395">
        <ele>1928.06</ele>
        <time>2016-12-10T14:07:34Z</time>
      </trkpt>
      <trkpt lat="45.12553" lon="5.89399">
        <ele>1929.5</ele>
        <time>2016-12-10T14:07:38Z</time>
      </trkpt>
      <trkpt lat="45.1256" lon="5.89403">
        <ele>1929.02</ele>
        <time>2016-12-10T14:07:46Z</time>
      </trkpt>
      <trkpt lat="45.12564" lon="5.89412">
        <ele>1929.98</ele>
        <time>2016-12-10T14:07:56Z</time>
      </trkpt>
      <trkpt lat="45.12568" lon="5.89414">
        <ele>1929.5</ele>
        <time>2016-12-10T14:08:00Z</time>
      </trkpt>
      <trkpt lat="45.12571" lon="5.89418">
        <ele>1929.5</ele>
        <time>2016-12-10T14:08:05Z</time>
      </trkpt>
      <trkpt lat="45.12572" lon="5.89427">
        <ele>1930.46</ele>
        <time>2016-12-10T14:08:13Z</time>
      </trkpt>
      <trkpt lat="45.12573" lon="5.89431">
        <ele>1931.91</ele>
        <time>2016-12-10T14:08:16Z</time>
      </trkpt>
      <trkpt lat="45.12577" lon="5.89441">
        <ele>1933.35</ele>
        <time>2016-12-10T14:08:26Z</time>
      </trkpt>
      <trkpt lat="45.12582" lon="5.8945">
        <ele>1933.83</ele>
        <time>2016-12-10T14:08:36Z</time>
      </trkpt>
      <trkpt lat="45.12583" lon="5.89451">
        <ele>1933.83</ele>
        <time>2016-12-10T14:08:37Z</time>
      </trkpt>
      <trkpt lat="45.12586" lon="5.89455">
        <ele>1933.83</ele>
        <time>2016-12-10T14:08:42Z</time>
      </trkpt>
      <trkpt lat="45.12592" lon="5.89461">
        <ele>1935.27</ele>
        <time>2016-12-10T14:08:50Z</time>
      </trkpt>
      <trkpt lat="45.12597" lon="5.89466">
        <ele>1936.23</ele>
        <time>2016-12-10T14:08:57Z</time>
      </trkpt>
      <trkpt lat="45.126" lon="5.89467">
        <ele>1937.19</ele>
        <time>2016-12-10T14:09:00Z</time>
      </trkpt>
      <trkpt lat="45.12603" lon="5.8947">
        <ele>1937.67</ele>
        <time>2016-12-10T14:09:03Z</time>
      </trkpt>
      <trkpt lat="45.12605" lon="5.89473">
        <ele>1939.12</ele>
        <time>2016-12-10T14:09:08Z</time>
      </trkpt>
      <trkpt lat="45.12608" lon="5.89478">
        <ele>1940.56</ele>
        <time>2016-12-10T14:09:18Z</time>
      </trkpt>
      <trkpt lat="45.12608" lon="5.89477">
        <ele>1941.04</ele>
        <time>2016-12-10T14:09:34Z</time>
      </trkpt>
      <trkpt lat="45.12608" lon="5.89478">
        <ele>1941.04</ele>
        <time>2016-12-10T14:09:50Z</time>
      </trkpt>
      <trkpt lat="45.12608" lon="5.89478">
        <ele>1940.56</ele>
        <time>2016-12-10T14:09:57Z</time>
      </trkpt>
      <trkpt lat="45.12609" lon="5.89483">
        <ele>1941.52</ele>
        <time>2016-12-10T14:10:01Z</time>
      </trkpt>
      <trkpt lat="45.12611" lon="5.89496">
        <ele>1943.92</ele>
        <time>2016-12-10T14:10:11Z</time>
      </trkpt>
      <trkpt lat="45.12611" lon="5.89502">
        <ele>1945.36</ele>
        <time>2016-12-10T14:10:16Z</time>
      </trkpt>
      <trkpt lat="45.1261" lon="5.89505">
        <ele>1945.36</ele>
        <time>2016-12-10T14:10:19Z</time>
      </trkpt>
      <trkpt lat="45.1261" lon="5.8952">
        <ele>1946.81</ele>
        <time>2016-12-10T14:10:31Z</time>
      </trkpt>
      <trkpt lat="45.12613" lon="5.89526">
        <ele>1949.69</ele>
        <time>2016-12-10T14:10:41Z</time>
      </trkpt>
      <trkpt lat="45.12613" lon="5.89531">
        <ele>1951.61</ele>
        <time>2016-12-10T14:10:48Z</time>
      </trkpt>
      <trkpt lat="45.12614" lon="5.89543">
        <ele>1953.06</ele>
        <time>2016-12-10T14:10:58Z</time>
      </trkpt>
      <trkpt lat="45.12616" lon="5.89551">
        <ele>1954.98</ele>
        <time>2016-12-10T14:11:07Z</time>
      </trkpt>
      <trkpt lat="45.12617" lon="5.89553">
        <ele>1956.9</ele>
        <time>2016-12-10T14:11:12Z</time>
      </trkpt>
      <trkpt lat="45.12619" lon="5.89564">
        <ele>1959.3</ele>
        <time>2016-12-10T14:11:22Z</time>
      </trkpt>
      <trkpt lat="45.12619" lon="5.89568">
        <ele>1960.27</ele>
        <time>2016-12-10T14:11:34Z</time>
      </trkpt>
      <trkpt lat="45.12622" lon="5.89573">
        <ele>1960.75</ele>
        <time>2016-12-10T14:11:46Z</time>
      </trkpt>
      <trkpt lat="45.12628" lon="5.89584">
        <ele>1963.15</ele>
        <time>2016-12-10T14:11:56Z</time>
      </trkpt>
      <trkpt lat="45.12629" lon="5.89587">
        <ele>1963.15</ele>
        <time>2016-12-10T14:11:59Z</time>
      </trkpt>
      <trkpt lat="45.12634" lon="5.89593">
        <ele>1964.11</ele>
        <time>2016-12-10T14:12:06Z</time>
      </trkpt>
      <trkpt lat="45.12635" lon="5.89596">
        <ele>1965.55</ele>
        <time>2016-12-10T14:12:09Z</time>
      </trkpt>
      <trkpt lat="45.12639" lon="5.89602">
        <ele>1966.99</ele>
        <time>2016-12-10T14:12:16Z</time>
      </trkpt>
      <trkpt lat="45.12641" lon="5.89606">
        <ele>1967.96</ele>
        <time>2016-12-10T14:12:19Z</time>
      </trkpt>
      <trkpt lat="45.12643" lon="5.8961">
        <ele>1968.92</ele>
        <time>2016-12-10T14:12:24Z</time>
      </trkpt>
      <trkpt lat="45.12649" lon="5.8962">
        <ele>1971.32</ele>
        <time>2016-12-10T14:12:36Z</time>
      </trkpt>
      <trkpt lat="45.1265" lon="5.89621">
        <ele>1971.8</ele>
        <time>2016-12-10T14:12:37Z</time>
      </trkpt>
      <trkpt lat="45.12651" lon="5.89624">
        <ele>1972.28</ele>
        <time>2016-12-10T14:12:40Z</time>
      </trkpt>
      <trkpt lat="45.12651" lon="5.8963">
        <ele>1974.2</ele>
        <time>2016-12-10T14:12:46Z</time>
      </trkpt>
      <trkpt lat="45.12652" lon="5.89639">
        <ele>1976.13</ele>
        <time>2016-12-10T14:12:55Z</time>
      </trkpt>
      <trkpt lat="45.12652" lon="5.89641">
        <ele>1976.13</ele>
        <time>2016-12-10T14:12:57Z</time>
      </trkpt>
      <trkpt lat="45.12656" lon="5.89644">
        <ele>1978.53</ele>
        <time>2016-12-10T14:13:07Z</time>
      </trkpt>
      <trkpt lat="45.12656" lon="5.89644">
        <ele>1978.53</ele>
        <time>2016-12-10T14:13:26Z</time>
      </trkpt>
      <trkpt lat="45.12657" lon="5.89644">
        <ele>1979.01</ele>
        <time>2016-12-10T14:13:42Z</time>
      </trkpt>
      <trkpt lat="45.12661" lon="5.89648">
        <ele>1980.45</ele>
        <time>2016-12-10T14:13:57Z</time>
      </trkpt>
      <trkpt lat="45.1266" lon="5.89659">
        <ele>1982.86</ele>
        <time>2016-12-10T14:14:07Z</time>
      </trkpt>
      <trkpt lat="45.12661" lon="5.89668">
        <ele>1985.26</ele>
        <time>2016-12-10T14:14:15Z</time>
      </trkpt>
      <trkpt lat="45.12662" lon="5.89674">
        <ele>1986.22</ele>
        <time>2016-12-10T14:14:24Z</time>
      </trkpt>
      <trkpt lat="45.1266" lon="5.89678">
        <ele>1987.66</ele>
        <time>2016-12-10T14:14:35Z</time>
      </trkpt>
      <trkpt lat="45.12658" lon="5.89681">
        <ele>1987.66</ele>
        <time>2016-12-10T14:14:37Z</time>
      </trkpt>
      <trkpt lat="45.12655" lon="5.89688">
        <ele>1990.07</ele>
        <time>2016-12-10T14:14:47Z</time>
      </trkpt>
      <trkpt lat="45.12655" lon="5.89695">
        <ele>1992.47</ele>
        <time>2016-12-10T14:14:57Z</time>
      </trkpt>
      <trkpt lat="45.12653" lon="5.89698">
        <ele>1993.43</ele>
        <time>2016-12-10T14:15:02Z</time>
      </trkpt>
      <trkpt lat="45.1265" lon="5.89701">
        <ele>1994.87</ele>
        <time>2016-12-10T14:15:08Z</time>
      </trkpt>
      <trkpt lat="45.12644" lon="5.897">
        <ele>1996.32</ele>
        <time>2016-12-10T14:15:16Z</time>
      </trkpt>
      <trkpt lat="45.12641" lon="5.89699">
        <ele>1997.76</ele>
        <time>2016-12-10T14:15:20Z</time>
      </trkpt>
      <trkpt lat="45.12638" lon="5.89698">
        <ele>1998.24</ele>
        <time>2016-12-10T14:15:23Z</time>
      </trkpt>
      <trkpt lat="45.12634" lon="5.89699">
        <ele>1999.2</ele>
        <time>2016-12-10T14:15:28Z</time>
      </trkpt>
      <trkpt lat="45.12626" lon="5.89697">
        <ele>2001.12</ele>
        <time>2016-12-10T14:15:37Z</time>
      </trkpt>
      <trkpt lat="45.12624" lon="5.89696">
        <ele>2001.12</ele>
        <time>2016-12-10T14:15:39Z</time>
      </trkpt>
      <trkpt lat="45.1262" lon="5.89695">
        <ele>2002.56</ele>
        <time>2016-12-10T14:15:43Z</time>
      </trkpt>
      <trkpt lat="45.12613" lon="5.89693">
        <ele>2004.01</ele>
        <time>2016-12-10T14:15:52Z</time>
      </trkpt>
      <trkpt lat="45.12608" lon="5.89692">
        <ele>2006.41</ele>
        <time>2016-12-10T14:15:59Z</time>
      </trkpt>
      <trkpt lat="45.12607" lon="5.89692">
        <ele>2006.41</ele>
        <time>2016-12-10T14:16:00Z</time>
      </trkpt>
      <trkpt lat="45.12606" lon="5.89692">
        <ele>2006.89</ele>
        <time>2016-12-10T14:16:01Z</time>
      </trkpt>
      <trkpt lat="45.12602" lon="5.89691">
        <ele>2007.37</ele>
        <time>2016-12-10T14:16:06Z</time>
      </trkpt>
      <trkpt lat="45.12595" lon="5.89689">
        <ele>2008.81</ele>
        <time>2016-12-10T14:16:14Z</time>
      </trkpt>
      <trkpt lat="45.12594" lon="5.89688">
        <ele>2009.29</ele>
        <time>2016-12-10T14:16:16Z</time>
      </trkpt>
      <trkpt lat="45.12587" lon="5.89685">
        <ele>2010.73</ele>
        <time>2016-12-10T14:16:24Z</time>
      </trkpt>
      <trkpt lat="45.12577" lon="5.89684">
        <ele>2012.66</ele>
        <time>2016-12-10T14:16:35Z</time>
      </trkpt>
      <trkpt lat="45.12575" lon="5.89683">
        <ele>2013.14</ele>
        <time>2016-12-10T14:16:37Z</time>
      </trkpt>
      <trkpt lat="45.1257" lon="5.8968">
        <ele>2014.1</ele>
        <time>2016-12-10T14:16:42Z</time>
      </trkpt>
      <trkpt lat="45.12567" lon="5.8968">
        <ele>2014.58</ele>
        <time>2016-12-10T14:16:46Z</time>
      </trkpt>
      <trkpt lat="45.12564" lon="5.89682">
        <ele>2015.54</ele>
        <time>2016-12-10T14:16:49Z</time>
      </trkpt>
      <trkpt lat="45.12557" lon="5.89682">
        <ele>2017.46</ele>
        <time>2016-12-10T14:16:57Z</time>
      </trkpt>
      <trkpt lat="45.1255" lon="5.89682">
        <ele>2019.39</ele>
        <time>2016-12-10T14:17:05Z</time>
      </trkpt>
      <trkpt lat="45.12544" lon="5.89682">
        <ele>2021.31</ele>
        <time>2016-12-10T14:17:13Z</time>
      </trkpt>
      <trkpt lat="45.12539" lon="5.89682">
        <ele>2023.71</ele>
        <time>2016-12-10T14:17:21Z</time>
      </trkpt>
      <trkpt lat="45.12535" lon="5.89682">
        <ele>2025.64</ele>
        <time>2016-12-10T14:17:26Z</time>
      </trkpt>
      <trkpt lat="45.12534" lon="5.89681">
        <ele>2025.64</ele>
        <time>2016-12-10T14:17:27Z</time>
      </trkpt>
      <trkpt lat="45.12528" lon="5.8968">
        <ele>2028.04</ele>
        <time>2016-12-10T14:17:35Z</time>
      </trkpt>
      <trkpt lat="45.12528" lon="5.89679">
        <ele>2028.52</ele>
        <time>2016-12-10T14:17:36Z</time>
      </trkpt>
      <trkpt lat="45.12524" lon="5.89676">
        <ele>2029</ele>
        <time>2016-12-10T14:17:40Z</time>
      </trkpt>
      <trkpt lat="45.12517" lon="5.89671">
        <ele>2029</ele>
        <time>2016-12-10T14:17:49Z</time>
      </trkpt>
      <trkpt lat="45.12515" lon="5.89671">
        <ele>2029.96</ele>
        <time>2016-12-10T14:17:51Z</time>
      </trkpt>
      <trkpt lat="45.12512" lon="5.8967">
        <ele>2030.92</ele>
        <time>2016-12-10T14:17:54Z</time>
      </trkpt>
      <trkpt lat="45.12505" lon="5.8967">
        <ele>2032.36</ele>
        <time>2016-12-10T14:18:02Z</time>
      </trkpt>
      <trkpt lat="45.12502" lon="5.89672">
        <ele>2034.29</ele>
        <time>2016-12-10T14:18:10Z</time>
      </trkpt>
      <trkpt lat="45.12499" lon="5.89673">
        <ele>2036.69</ele>
        <time>2016-12-10T14:18:17Z</time>
      </trkpt>
      <trkpt lat="45.12494" lon="5.89675">
        <ele>2038.61</ele>
        <time>2016-12-10T14:18:25Z</time>
      </trkpt>
      <trkpt lat="45.12488" lon="5.89674">
        <ele>2039.57</ele>
        <time>2016-12-10T14:18:32Z</time>
      </trkpt>
      <trkpt lat="45.12482" lon="5.89673">
        <ele>2041.98</ele>
        <time>2016-12-10T14:18:40Z</time>
      </trkpt>
      <trkpt lat="45.12482" lon="5.89674">
        <ele>2042.46</ele>
        <time>2016-12-10T14:18:49Z</time>
      </trkpt>
      <trkpt lat="45.12482" lon="5.89675">
        <ele>2042.94</ele>
        <time>2016-12-10T14:19:06Z</time>
      </trkpt>
      <trkpt lat="45.12475" lon="5.89679">
        <ele>2045.82</ele>
        <time>2016-12-10T14:19:14Z</time>
      </trkpt>
      <trkpt lat="45.1247" lon="5.89683">
        <ele>2046.78</ele>
        <time>2016-12-10T14:19:22Z</time>
      </trkpt>
      <trkpt lat="45.12468" lon="5.89684">
        <ele>2047.75</ele>
        <time>2016-12-10T14:19:24Z</time>
      </trkpt>
      <trkpt lat="45.12465" lon="5.89685">
        <ele>2048.71</ele>
        <time>2016-12-10T14:19:33Z</time>
      </trkpt>
      <trkpt lat="45.12465" lon="5.89684">
        <ele>2048.71</ele>
        <time>2016-12-10T14:19:50Z</time>
      </trkpt>
      <trkpt lat="45.12468" lon="5.89684">
        <ele>2049.19</ele>
        <time>2016-12-10T14:20:13Z</time>
      </trkpt>
      <trkpt lat="45.12469" lon="5.89684">
        <ele>2049.67</ele>
        <time>2016-12-10T14:20:38Z</time>
      </trkpt>
      <trkpt lat="45.12468" lon="5.89684">
        <ele>2050.15</ele>
        <time>2016-12-10T14:20:59Z</time>
      </trkpt>
      <trkpt lat="45.12467" lon="5.89683">
        <ele>2050.15</ele>
        <time>2016-12-10T14:21:05Z</time>
      </trkpt>
      <trkpt lat="45.12472" lon="5.89691">
        <ele>2051.11</ele>
        <time>2016-12-10T14:21:13Z</time>
      </trkpt>
      <trkpt lat="45.12474" lon="5.89695">
        <ele>2051.11</ele>
        <time>2016-12-10T14:21:18Z</time>
      </trkpt>
      <trkpt lat="45.12476" lon="5.89698">
        <ele>2052.07</ele>
        <time>2016-12-10T14:21:21Z</time>
      </trkpt>
      <trkpt lat="45.12481" lon="5.89706">
        <ele>2053.51</ele>
        <time>2016-12-10T14:21:30Z</time>
      </trkpt>
      <trkpt lat="45.12483" lon="5.89714">
        <ele>2055.44</ele>
        <time>2016-12-10T14:21:38Z</time>
      </trkpt>
      <trkpt lat="45.12488" lon="5.8972">
        <ele>2055.92</ele>
        <time>2016-12-10T14:21:48Z</time>
      </trkpt>
      <trkpt lat="45.12494" lon="5.89724">
        <ele>2057.84</ele>
        <time>2016-12-10T14:21:58Z</time>
      </trkpt>
      <trkpt lat="45.12502" lon="5.89729">
        <ele>2059.28</ele>
        <time>2016-12-10T14:22:10Z</time>
      </trkpt>
      <trkpt lat="45.12505" lon="5.89729">
        <ele>2060.24</ele>
        <time>2016-12-10T14:22:22Z</time>
      </trkpt>
      <trkpt lat="45.12504" lon="5.89734">
        <ele>2063.13</ele>
        <time>2016-12-10T14:22:30Z</time>
      </trkpt>
      <trkpt lat="45.12504" lon="5.89734">
        <ele>2063.13</ele>
        <time>2016-12-10T14:22:31Z</time>
      </trkpt>
      <trkpt lat="45.12503" lon="5.89735">
        <ele>2063.13</ele>
        <time>2016-12-10T14:22:32Z</time>
      </trkpt>
      <trkpt lat="45.12502" lon="5.8974">
        <ele>2065.53</ele>
        <time>2016-12-10T14:22:41Z</time>
      </trkpt>
      <trkpt lat="45.125" lon="5.89745">
        <ele>2067.45</ele>
        <time>2016-12-10T14:22:49Z</time>
      </trkpt>
      <trkpt lat="45.12499" lon="5.89746">
        <ele>2067.93</ele>
        <time>2016-12-10T14:22:50Z</time>
      </trkpt>
      <trkpt lat="45.12499" lon="5.89748">
        <ele>2069.38</ele>
        <time>2016-12-10T14:22:59Z</time>
      </trkpt>
      <trkpt lat="45.12497" lon="5.89751">
        <ele>2071.78</ele>
        <time>2016-12-10T14:23:09Z</time>
      </trkpt>
      <trkpt lat="45.12495" lon="5.89758">
        <ele>2074.66</ele>
        <time>2016-12-10T14:23:19Z</time>
      </trkpt>
      <trkpt lat="45.12495" lon="5.8976">
        <ele>2075.14</ele>
        <time>2016-12-10T14:23:23Z</time>
      </trkpt>
      <trkpt lat="45.12496" lon="5.89765">
        <ele>2077.07</ele>
        <time>2016-12-10T14:23:29Z</time>
      </trkpt>
      <trkpt lat="45.12494" lon="5.89768">
        <ele>2079.95</ele>
        <time>2016-12-10T14:23:38Z</time>
      </trkpt>
      <trkpt lat="45.12491" lon="5.89772">
        <ele>2081.87</ele>
        <time>2016-12-10T14:23:44Z</time>
      </trkpt>
      <trkpt lat="45.12492" lon="5.89775">
        <ele>2083.79</ele>
        <time>2016-12-10T14:23:52Z</time>
      </trkpt>
      <trkpt lat="45.12495" lon="5.89777">
        <ele>2084.76</ele>
        <time>2016-12-10T14:24:02Z</time>
      </trkpt>
      <trkpt lat="45.12498" lon="5.89782">
        <ele>2087.16</ele>
        <time>2016-12-10T14:24:10Z</time>
      </trkpt>
      <trkpt lat="45.12502" lon="5.89789">
        <ele>2089.56</ele>
        <time>2016-12-10T14:24:20Z</time>
      </trkpt>
      <trkpt lat="45.12507" lon="5.89792">
        <ele>2091</ele>
        <time>2016-12-10T14:24:27Z</time>
      </trkpt>
      <trkpt lat="45.1251" lon="5.89794">
        <ele>2092.93</ele>
        <time>2016-12-10T14:24:34Z</time>
      </trkpt>
      <trkpt lat="45.12511" lon="5.89797">
        <ele>2093.89</ele>
        <time>2016-12-10T14:24:37Z</time>
      </trkpt>
      <trkpt lat="45.12513" lon="5.89799">
        <ele>2094.37</ele>
        <time>2016-12-10T14:24:40Z</time>
      </trkpt>
      <trkpt lat="45.12517" lon="5.89802">
        <ele>2095.33</ele>
        <time>2016-12-10T14:24:47Z</time>
      </trkpt>
      <trkpt lat="45.12521" lon="5.89806">
        <ele>2097.73</ele>
        <time>2016-12-10T14:24:57Z</time>
      </trkpt>
      <trkpt lat="45.12524" lon="5.89812">
        <ele>2099.18</ele>
        <time>2016-12-10T14:25:05Z</time>
      </trkpt>
      <trkpt lat="45.12525" lon="5.89813">
        <ele>2101.1</ele>
        <time>2016-12-10T14:25:15Z</time>
      </trkpt>
      <trkpt lat="45.12525" lon="5.89814">
        <ele>2101.58</ele>
        <time>2016-12-10T14:25:23Z</time>
      </trkpt>
      <trkpt lat="45.12526" lon="5.89816">
        <ele>2103.02</ele>
        <time>2016-12-10T14:25:37Z</time>
      </trkpt>
      <trkpt lat="45.1253" lon="5.89822">
        <ele>2104.94</ele>
        <time>2016-12-10T14:25:46Z</time>
      </trkpt>
      <trkpt lat="45.12533" lon="5.89828">
        <ele>2107.35</ele>
        <time>2016-12-10T14:25:55Z</time>
      </trkpt>
      <trkpt lat="45.12535" lon="5.89832">
        <ele>2109.27</ele>
        <time>2016-12-10T14:26:03Z</time>
      </trkpt>
      <trkpt lat="45.12538" lon="5.89837">
        <ele>2111.19</ele>
        <time>2016-12-10T14:26:09Z</time>
      </trkpt>
      <trkpt lat="45.12538" lon="5.89846">
        <ele>2113.6</ele>
        <time>2016-12-10T14:26:18Z</time>
      </trkpt>
      <trkpt lat="45.12539" lon="5.89847">
        <ele>2113.6</ele>
        <time>2016-12-10T14:26:21Z</time>
      </trkpt>
      <trkpt lat="45.12544" lon="5.89856">
        <ele>2116.48</ele>
        <time>2016-12-10T14:26:31Z</time>
      </trkpt>
      <trkpt lat="45.12549" lon="5.89858">
        <ele>2117.44</ele>
        <time>2016-12-10T14:26:37Z</time>
      </trkpt>
      <trkpt lat="45.12555" lon="5.89859">
        <ele>2117.92</ele>
        <time>2016-12-10T14:26:44Z</time>
      </trkpt>
      <trkpt lat="45.1256" lon="5.89859">
        <ele>2118.4</ele>
        <time>2016-12-10T14:26:54Z</time>
      </trkpt>
      <trkpt lat="45.12561" lon="5.89859">
        <ele>2117.92</ele>
        <time>2016-12-10T14:27:12Z</time>
      </trkpt>
      <trkpt lat="45.12561" lon="5.89861">
        <ele>2118.88</ele>
        <time>2016-12-10T14:27:24Z</time>
      </trkpt>
      <trkpt lat="45.1256" lon="5.89865">
        <ele>2120.81</ele>
        <time>2016-12-10T14:27:32Z</time>
      </trkpt>
      <trkpt lat="45.12562" lon="5.89871">
        <ele>2121.77</ele>
        <time>2016-12-10T14:27:38Z</time>
      </trkpt>
      <trkpt lat="45.12564" lon="5.8988">
        <ele>2124.65</ele>
        <time>2016-12-10T14:27:48Z</time>
      </trkpt>
      <trkpt lat="45.12566" lon="5.89887">
        <ele>2126.09</ele>
        <time>2016-12-10T14:27:56Z</time>
      </trkpt>
      <trkpt lat="45.12565" lon="5.89891">
        <ele>2127.05</ele>
        <time>2016-12-10T14:27:59Z</time>
      </trkpt>
      <trkpt lat="45.12567" lon="5.89893">
        <ele>2127.53</ele>
        <time>2016-12-10T14:28:01Z</time>
      </trkpt>
      <trkpt lat="45.1257" lon="5.89902">
        <ele>2130.42</ele>
        <time>2016-12-10T14:28:12Z</time>
      </trkpt>
      <trkpt lat="45.12565" lon="5.89905">
        <ele>2132.82</ele>
        <time>2016-12-10T14:28:22Z</time>
      </trkpt>
      <trkpt lat="45.12559" lon="5.89907">
        <ele>2134.74</ele>
        <time>2016-12-10T14:28:30Z</time>
      </trkpt>
      <trkpt lat="45.12554" lon="5.89911">
        <ele>2136.67</ele>
        <time>2016-12-10T14:28:38Z</time>
      </trkpt>
      <trkpt lat="45.12554" lon="5.89912">
        <ele>2136.67</ele>
        <time>2016-12-10T14:28:39Z</time>
      </trkpt>
      <trkpt lat="45.12555" lon="5.89915">
        <ele>2137.15</ele>
        <time>2016-12-10T14:28:41Z</time>
      </trkpt>
      <trkpt lat="45.12559" lon="5.89921">
        <ele>2138.59</ele>
        <time>2016-12-10T14:28:47Z</time>
      </trkpt>
      <trkpt lat="45.12562" lon="5.89929">
        <ele>2139.55</ele>
        <time>2016-12-10T14:28:55Z</time>
      </trkpt>
      <trkpt lat="45.12558" lon="5.89932">
        <ele>2142.44</ele>
        <time>2016-12-10T14:29:03Z</time>
      </trkpt>
      <trkpt lat="45.12562" lon="5.89938">
        <ele>2143.4</ele>
        <time>2016-12-10T14:29:10Z</time>
      </trkpt>
      <trkpt lat="45.12565" lon="5.89941">
        <ele>2144.84</ele>
        <time>2016-12-10T14:29:14Z</time>
      </trkpt>
      <trkpt lat="45.12567" lon="5.89942">
        <ele>2145.32</ele>
        <time>2016-12-10T14:29:16Z</time>
      </trkpt>
      <trkpt lat="45.12571" lon="5.89948">
        <ele>2146.28</ele>
        <time>2016-12-10T14:29:25Z</time>
      </trkpt>
      <trkpt lat="45.12572" lon="5.89951">
        <ele>2147.24</ele>
        <time>2016-12-10T14:29:29Z</time>
      </trkpt>
      <trkpt lat="45.12569" lon="5.89954">
        <ele>2148.68</ele>
        <time>2016-12-10T14:29:33Z</time>
      </trkpt>
      <trkpt lat="45.1257" lon="5.8996">
        <ele>2151.57</ele>
        <time>2016-12-10T14:29:43Z</time>
      </trkpt>
      <trkpt lat="45.12571" lon="5.89962">
        <ele>2152.05</ele>
        <time>2016-12-10T14:29:46Z</time>
      </trkpt>
      <trkpt lat="45.12576" lon="5.89968">
        <ele>2153.49</ele>
        <time>2016-12-10T14:29:52Z</time>
      </trkpt>
      <trkpt lat="45.12582" lon="5.89974">
        <ele>2155.41</ele>
        <time>2016-12-10T14:30:02Z</time>
      </trkpt>
      <trkpt lat="45.12587" lon="5.8998">
        <ele>2155.89</ele>
        <time>2016-12-10T14:30:11Z</time>
      </trkpt>
      <trkpt lat="45.12592" lon="5.89985">
        <ele>2157.82</ele>
        <time>2016-12-10T14:30:19Z</time>
      </trkpt>
      <trkpt lat="45.12596" lon="5.8999">
        <ele>2159.74</ele>
        <time>2016-12-10T14:30:28Z</time>
      </trkpt>
      <trkpt lat="45.12602" lon="5.89997">
        <ele>2161.66</ele>
        <time>2016-12-10T14:30:37Z</time>
      </trkpt>
      <trkpt lat="45.12607" lon="5.90005">
        <ele>2163.58</ele>
        <time>2016-12-10T14:30:48Z</time>
      </trkpt>
      <trkpt lat="45.1261" lon="5.90014">
        <ele>2166.47</ele>
        <time>2016-12-10T14:30:58Z</time>
      </trkpt>
      <trkpt lat="45.12615" lon="5.90022">
        <ele>2167.91</ele>
        <time>2016-12-10T14:31:07Z</time>
      </trkpt>
      <trkpt lat="45.12616" lon="5.90028">
        <ele>2169.35</ele>
        <time>2016-12-10T14:31:14Z</time>
      </trkpt>
      <trkpt lat="45.12618" lon="5.90036">
        <ele>2171.27</ele>
        <time>2016-12-10T14:31:24Z</time>
      </trkpt>
      <trkpt lat="45.12618" lon="5.90044">
        <ele>2174.64</ele>
        <time>2016-12-10T14:31:35Z</time>
      </trkpt>
      <trkpt lat="45.12618" lon="5.90048">
        <ele>2175.12</ele>
        <time>2016-12-10T14:31:40Z</time>
      </trkpt>
      <trkpt lat="45.12623" lon="5.90058">
        <ele>2177.52</ele>
        <time>2016-12-10T14:31:51Z</time>
      </trkpt>
      <trkpt lat="45.12626" lon="5.90062">
        <ele>2178.97</ele>
        <time>2016-12-10T14:31:57Z</time>
      </trkpt>
      <trkpt lat="45.1263" lon="5.90073">
        <ele>2181.85</ele>
        <time>2016-12-10T14:32:08Z</time>
      </trkpt>
      <trkpt lat="45.12633" lon="5.90079">
        <ele>2182.81</ele>
        <time>2016-12-10T14:32:15Z</time>
      </trkpt>
      <trkpt lat="45.12636" lon="5.90085">
        <ele>2184.73</ele>
        <time>2016-12-10T14:32:22Z</time>
      </trkpt>
      <trkpt lat="45.12637" lon="5.90087">
        <ele>2184.73</ele>
        <time>2016-12-10T14:32:25Z</time>
      </trkpt>
      <trkpt lat="45.1264" lon="5.90096">
        <ele>2186.66</ele>
        <time>2016-12-10T14:32:35Z</time>
      </trkpt>
      <trkpt lat="45.12643" lon="5.90106">
        <ele>2188.1</ele>
        <time>2016-12-10T14:32:44Z</time>
      </trkpt>
      <trkpt lat="45.12645" lon="5.90115">
        <ele>2191.46</ele>
        <time>2016-12-10T14:32:55Z</time>
      </trkpt>
      <trkpt lat="45.12646" lon="5.90123">
        <ele>2192.9</ele>
        <time>2016-12-10T14:33:04Z</time>
      </trkpt>
      <trkpt lat="45.12649" lon="5.90132">
        <ele>2194.83</ele>
        <time>2016-12-10T14:33:12Z</time>
      </trkpt>
      <trkpt lat="45.12651" lon="5.90143">
        <ele>2196.75</ele>
        <time>2016-12-10T14:33:23Z</time>
      </trkpt>
      <trkpt lat="45.12654" lon="5.90152">
        <ele>2198.19</ele>
        <time>2016-12-10T14:33:33Z</time>
      </trkpt>
      <trkpt lat="45.12655" lon="5.90154">
        <ele>2198.67</ele>
        <time>2016-12-10T14:33:36Z</time>
      </trkpt>
      <trkpt lat="45.1266" lon="5.90163">
        <ele>2200.11</ele>
        <time>2016-12-10T14:33:46Z</time>
      </trkpt>
      <trkpt lat="45.12663" lon="5.90167">
        <ele>2200.11</ele>
        <time>2016-12-10T14:33:51Z</time>
      </trkpt>
      <trkpt lat="45.12667" lon="5.9017">
        <ele>2201.08</ele>
        <time>2016-12-10T14:33:56Z</time>
      </trkpt>
      <trkpt lat="45.12669" lon="5.90173">
        <ele>2201.56</ele>
        <time>2016-12-10T14:34:00Z</time>
      </trkpt>
      <trkpt lat="45.12675" lon="5.90179">
        <ele>2202.52</ele>
        <time>2016-12-10T14:34:09Z</time>
      </trkpt>
      <trkpt lat="45.12678" lon="5.90186">
        <ele>2203.96</ele>
        <time>2016-12-10T14:34:16Z</time>
      </trkpt>
      <trkpt lat="45.12681" lon="5.9019">
        <ele>2204.44</ele>
        <time>2016-12-10T14:34:26Z</time>
      </trkpt>
      <trkpt lat="45.1268" lon="5.90191">
        <ele>2204.44</ele>
        <time>2016-12-10T14:34:43Z</time>
      </trkpt>
      <trkpt lat="45.1268" lon="5.90191">
        <ele>2204.92</ele>
        <time>2016-12-10T14:35:05Z</time>
      </trkpt>
      <trkpt lat="45.12681" lon="5.90193">
        <ele>2204.92</ele>
        <time>2016-12-10T14:35:07Z</time>
      </trkpt>
      <trkpt lat="45.12683" lon="5.90199">
        <ele>2205.88</ele>
        <time>2016-12-10T14:35:13Z</time>
      </trkpt>
      <trkpt lat="45.12693" lon="5.90208">
        <ele>2206.84</ele>
        <time>2016-12-10T14:35:24Z</time>
      </trkpt>
      <trkpt lat="45.12695" lon="5.90212">
        <ele>2207.32</ele>
        <time>2016-12-10T14:35:27Z</time>
      </trkpt>
      <trkpt lat="45.12706" lon="5.90221">
        <ele>2207.81</ele>
        <time>2016-12-10T14:35:38Z</time>
      </trkpt>
      <trkpt lat="45.12709" lon="5.90226">
        <ele>2208.77</ele>
        <time>2016-12-10T14:35:43Z</time>
      </trkpt>
      <trkpt lat="45.12712" lon="5.90241">
        <ele>2209.73</ele>
        <time>2016-12-10T14:35:55Z</time>
      </trkpt>
      <trkpt lat="45.12711" lon="5.90242">
        <ele>2209.73</ele>
        <time>2016-12-10T14:36:09Z</time>
      </trkpt>
      <trkpt lat="45.12712" lon="5.90241">
        <ele>2209.73</ele>
        <time>2016-12-10T14:36:28Z</time>
      </trkpt>
      <trkpt lat="45.12712" lon="5.90244">
        <ele>2210.21</ele>
        <time>2016-12-10T14:36:31Z</time>
      </trkpt>
      <trkpt lat="45.1271" lon="5.90251">
        <ele>2210.21</ele>
        <time>2016-12-10T14:36:36Z</time>
      </trkpt>
      <trkpt lat="45.12708" lon="5.90256">
        <ele>2210.21</ele>
        <time>2016-12-10T14:36:40Z</time>
      </trkpt>
      <trkpt lat="45.12705" lon="5.90259">
        <ele>2211.65</ele>
        <time>2016-12-10T14:36:45Z</time>
      </trkpt>
      <trkpt lat="45.12697" lon="5.90262">
        <ele>2213.57</ele>
        <time>2016-12-10T14:36:54Z</time>
      </trkpt>
      <trkpt lat="45.12689" lon="5.90265">
        <ele>2215.5</ele>
        <time>2016-12-10T14:37:04Z</time>
      </trkpt>
      <trkpt lat="45.12689" lon="5.90266">
        <ele>2215.5</ele>
        <time>2016-12-10T14:37:05Z</time>
      </trkpt>
      <trkpt lat="45.12683" lon="5.90269">
        <ele>2216.46</ele>
        <time>2016-12-10T14:37:12Z</time>
      </trkpt>
      <trkpt lat="45.12682" lon="5.90271">
        <ele>2216.94</ele>
        <time>2016-12-10T14:37:14Z</time>
      </trkpt>
      <trkpt lat="45.12677" lon="5.90277">
        <ele>2218.38</ele>
        <time>2016-12-10T14:37:22Z</time>
      </trkpt>
      <trkpt lat="45.12675" lon="5.90281">
        <ele>2219.82</ele>
        <time>2016-12-10T14:37:33Z</time>
      </trkpt>
      <trkpt lat="45.12674" lon="5.90281">
        <ele>2220.3</ele>
        <time>2016-12-10T14:37:53Z</time>
      </trkpt>
      <trkpt lat="45.12673" lon="5.90283">
        <ele>2220.3</ele>
        <time>2016-12-10T14:38:00Z</time>
      </trkpt>
      <trkpt lat="45.12666" lon="5.90294">
        <ele>2222.71</ele>
        <time>2016-12-10T14:38:11Z</time>
      </trkpt>
      <trkpt lat="45.12659" lon="5.90305">
        <ele>2224.63</ele>
        <time>2016-12-10T14:38:22Z</time>
      </trkpt>
      <trkpt lat="45.12656" lon="5.90314">
        <ele>2226.07</ele>
        <time>2016-12-10T14:38:31Z</time>
      </trkpt>
      <trkpt lat="45.12652" lon="5.90319">
        <ele>2227.51</ele>
        <time>2016-12-10T14:38:37Z</time>
      </trkpt>
      <trkpt lat="45.12648" lon="5.90326">
        <ele>2229.92</ele>
        <time>2016-12-10T14:38:46Z</time>
      </trkpt>
      <trkpt lat="45.12646" lon="5.90335">
        <ele>2230.88</ele>
        <time>2016-12-10T14:38:54Z</time>
      </trkpt>
      <trkpt lat="45.12645" lon="5.90341">
        <ele>2230.88</ele>
        <time>2016-12-10T14:39:06Z</time>
      </trkpt>
      <trkpt lat="45.12645" lon="5.9034">
        <ele>2231.84</ele>
        <time>2016-12-10T14:39:21Z</time>
      </trkpt>
      <trkpt lat="45.12645" lon="5.9034">
        <ele>2230.4</ele>
        <time>2016-12-10T14:39:31Z</time>
      </trkpt>
      <trkpt lat="45.12645" lon="5.9034">
        <ele>2230.88</ele>
        <time>2016-12-10T14:39:49Z</time>
      </trkpt>
      <trkpt lat="45.12644" lon="5.9034">
        <ele>2231.84</ele>
        <time>2016-12-10T14:40:05Z</time>
      </trkpt>
      <trkpt lat="45.12644" lon="5.9034">
        <ele>2231.36</ele>
        <time>2016-12-10T14:40:18Z</time>
      </trkpt>
      <trkpt lat="45.12644" lon="5.9034">
        <ele>2231.84</ele>
        <time>2016-12-10T14:40:33Z</time>
      </trkpt>
      <trkpt lat="45.12643" lon="5.9034">
        <ele>2232.32</ele>
        <time>2016-12-10T14:40:56Z</time>
      </trkpt>
      <trkpt lat="45.12644" lon="5.9034">
        <ele>2231.84</ele>
        <time>2016-12-10T14:41:16Z</time>
      </trkpt>
      <trkpt lat="45.12644" lon="5.9034">
        <ele>2231.84</ele>
        <time>2016-12-10T14:41:29Z</time>
      </trkpt>
      <trkpt lat="45.12644" lon="5.9034">
        <ele>2232.32</ele>
        <time>2016-12-10T14:41:49Z</time>
      </trkpt>
      <trkpt lat="45.12644" lon="5.9034">
        <ele>2232.32</ele>
        <time>2016-12-10T14:42:11Z</time>
      </trkpt>
      <trkpt lat="45.12644" lon="5.9034">
        <ele>2232.32</ele>
        <time>2016-12-10T14:42:19Z</time>
      </trkpt>
      <trkpt lat="45.12636" lon="5.90361">
        <ele>2234.24</ele>
        <time>2016-12-10T14:42:33Z</time>
      </trkpt>
      <trkpt lat="45.12628" lon="5.90376">
        <ele>2234.24</ele>
        <time>2016-12-10T14:42:43Z</time>
      </trkpt>
      <trkpt lat="45.1262" lon="5.9039">
        <ele>2234.24</ele>
        <time>2016-12-10T14:42:54Z</time>
      </trkpt>
      <trkpt lat="45.12603" lon="5.90387">
        <ele>2233.28</ele>
        <time>2016-12-10T14:43:07Z</time>
      </trkpt>
      <trkpt lat="45.12599" lon="5.90386">
        <ele>2233.28</ele>
        <time>2016-12-10T14:43:10Z</time>
      </trkpt>
      <trkpt lat="45.12584" lon="5.90396">
        <ele>2234.24</ele>
        <time>2016-12-10T14:43:23Z</time>
      </trkpt>
      <trkpt lat="45.12578" lon="5.9041">
        <ele>2235.2</ele>
        <time>2016-12-10T14:43:33Z</time>
      </trkpt>
      <trkpt lat="45.12574" lon="5.90428">
        <ele>2235.2</ele>
        <time>2016-12-10T14:43:43Z</time>
      </trkpt>
      <trkpt lat="45.12574" lon="5.9044">
        <ele>2235.68</ele>
        <time>2016-12-10T14:43:49Z</time>
      </trkpt>
      <trkpt lat="45.12571" lon="5.90463">
        <ele>2234.72</ele>
        <time>2016-12-10T14:44:02Z</time>
      </trkpt>
      <trkpt lat="45.12566" lon="5.90488">
        <ele>2234.24</ele>
        <time>2016-12-10T14:44:15Z</time>
      </trkpt>
      <trkpt lat="45.12561" lon="5.9051">
        <ele>2233.76</ele>
        <time>2016-12-10T14:44:26Z</time>
      </trkpt>
      <trkpt lat="45.12561" lon="5.90528">
        <ele>2235.68</ele>
        <time>2016-12-10T14:44:36Z</time>
      </trkpt>
      <trkpt lat="45.12563" lon="5.90539">
        <ele>2237.13</ele>
        <time>2016-12-10T14:44:44Z</time>
      </trkpt>
      <trkpt lat="45.12561" lon="5.90544">
        <ele>2236.16</ele>
        <time>2016-12-10T14:44:49Z</time>
      </trkpt>
      <trkpt lat="45.1256" lon="5.90549">
        <ele>2236.16</ele>
        <time>2016-12-10T14:45:00Z</time>
      </trkpt>
      <trkpt lat="45.12558" lon="5.90549">
        <ele>2236.16</ele>
        <time>2016-12-10T14:45:16Z</time>
      </trkpt>
      <trkpt lat="45.12554" lon="5.90545">
        <ele>2235.68</ele>
        <time>2016-12-10T14:45:25Z</time>
      </trkpt>
      <trkpt lat="45.12552" lon="5.90543">
        <ele>2235.68</ele>
        <time>2016-12-10T14:45:28Z</time>
      </trkpt>
      <trkpt lat="45.12551" lon="5.9054">
        <ele>2235.2</ele>
        <time>2016-12-10T14:45:30Z</time>
      </trkpt>
      <trkpt lat="45.12549" lon="5.90537">
        <ele>2234.24</ele>
        <time>2016-12-10T14:45:32Z</time>
      </trkpt>
      <trkpt lat="45.12546" lon="5.90534">
        <ele>2234.24</ele>
        <time>2016-12-10T14:45:35Z</time>
      </trkpt>
      <trkpt lat="45.12545" lon="5.90511">
        <ele>2233.76</ele>
        <time>2016-12-10T14:45:47Z</time>
      </trkpt>
      <trkpt lat="45.12542" lon="5.90488">
        <ele>2232.8</ele>
        <time>2016-12-10T14:45:59Z</time>
      </trkpt>
      <trkpt lat="45.12542" lon="5.90479">
        <ele>2232.32</ele>
        <time>2016-12-10T14:46:03Z</time>
      </trkpt>
      <trkpt lat="45.12537" lon="5.90456">
        <ele>2230.88</ele>
        <time>2016-12-10T14:46:14Z</time>
      </trkpt>
      <trkpt lat="45.12531" lon="5.90431">
        <ele>2229.43</ele>
        <time>2016-12-10T14:46:26Z</time>
      </trkpt>
      <trkpt lat="45.12525" lon="5.90408">
        <ele>2227.99</ele>
        <time>2016-12-10T14:46:38Z</time>
      </trkpt>
      <trkpt lat="45.12518" lon="5.90385">
        <ele>2226.07</ele>
        <time>2016-12-10T14:46:49Z</time>
      </trkpt>
      <trkpt lat="45.1251" lon="5.90361">
        <ele>2224.15</ele>
        <time>2016-12-10T14:47:02Z</time>
      </trkpt>
      <trkpt lat="45.12508" lon="5.90354">
        <ele>2223.67</ele>
        <time>2016-12-10T14:47:06Z</time>
      </trkpt>
      <trkpt lat="45.12499" lon="5.90339">
        <ele>2221.26</ele>
        <time>2016-12-10T14:47:15Z</time>
      </trkpt>
      <trkpt lat="45.12497" lon="5.90331">
        <ele>2220.78</ele>
        <time>2016-12-10T14:47:19Z</time>
      </trkpt>
      <trkpt lat="45.12493" lon="5.90309">
        <ele>2219.34</ele>
        <time>2016-12-10T14:47:29Z</time>
      </trkpt>
      <trkpt lat="45.12483" lon="5.90291">
        <ele>2215.98</ele>
        <time>2016-12-10T14:47:40Z</time>
      </trkpt>
      <trkpt lat="45.1248" lon="5.90282">
        <ele>2215.5</ele>
        <time>2016-12-10T14:47:44Z</time>
      </trkpt>
      <trkpt lat="45.12477" lon="5.90275">
        <ele>2214.53</ele>
        <time>2016-12-10T14:47:48Z</time>
      </trkpt>
      <trkpt lat="45.12474" lon="5.90268">
        <ele>2214.05</ele>
        <time>2016-12-10T14:47:52Z</time>
      </trkpt>
      <trkpt lat="45.12471" lon="5.90259">
        <ele>2213.09</ele>
        <time>2016-12-10T14:47:56Z</time>
      </trkpt>
      <trkpt lat="45.12469" lon="5.90237">
        <ele>2212.61</ele>
        <time>2016-12-10T14:48:06Z</time>
      </trkpt>
      <trkpt lat="45.12464" lon="5.90227">
        <ele>2210.21</ele>
        <time>2016-12-10T14:48:12Z</time>
      </trkpt>
      <trkpt lat="45.12451" lon="5.90209">
        <ele>2207.32</ele>
        <time>2016-12-10T14:48:24Z</time>
      </trkpt>
      <trkpt lat="45.12439" lon="5.90195">
        <ele>2203.96</ele>
        <time>2016-12-10T14:48:35Z</time>
      </trkpt>
      <trkpt lat="45.12429" lon="5.90178">
        <ele>2202.04</ele>
        <time>2016-12-10T14:48:45Z</time>
      </trkpt>
      <trkpt lat="45.12409" lon="5.90162">
        <ele>2199.15</ele>
        <time>2016-12-10T14:49:00Z</time>
      </trkpt>
      <trkpt lat="45.12398" lon="5.90148">
        <ele>2195.79</ele>
        <time>2016-12-10T14:49:10Z</time>
      </trkpt>
      <trkpt lat="45.12386" lon="5.90131">
        <ele>2193.39</ele>
        <time>2016-12-10T14:49:21Z</time>
      </trkpt>
      <trkpt lat="45.12382" lon="5.90126">
        <ele>2191.94</ele>
        <time>2016-12-10T14:49:25Z</time>
      </trkpt>
      <trkpt lat="45.12377" lon="5.90121">
        <ele>2190.98</ele>
        <time>2016-12-10T14:49:29Z</time>
      </trkpt>
      <trkpt lat="45.12365" lon="5.90111">
        <ele>2188.1</ele>
        <time>2016-12-10T14:49:38Z</time>
      </trkpt>
      <trkpt lat="45.1235" lon="5.90099">
        <ele>2185.21</ele>
        <time>2016-12-10T14:49:50Z</time>
      </trkpt>
      <trkpt lat="45.12338" lon="5.90084">
        <ele>2182.33</ele>
        <time>2016-12-10T14:50:01Z</time>
      </trkpt>
      <trkpt lat="45.12324" lon="5.90071">
        <ele>2179.45</ele>
        <time>2016-12-10T14:50:12Z</time>
      </trkpt>
      <trkpt lat="45.12309" lon="5.90057">
        <ele>2176.56</ele>
        <time>2016-12-10T14:50:24Z</time>
      </trkpt>
      <trkpt lat="45.12295" lon="5.90042">
        <ele>2174.64</ele>
        <time>2016-12-10T14:50:36Z</time>
      </trkpt>
      <trkpt lat="45.12281" lon="5.9003">
        <ele>2171.76</ele>
        <time>2016-12-10T14:50:48Z</time>
      </trkpt>
      <trkpt lat="45.12277" lon="5.90024">
        <ele>2169.83</ele>
        <time>2016-12-10T14:50:52Z</time>
      </trkpt>
      <trkpt lat="45.12265" lon="5.90011">
        <ele>2167.43</ele>
        <time>2016-12-10T14:51:03Z</time>
      </trkpt>
      <trkpt lat="45.12252" lon="5.90001">
        <ele>2164.06</ele>
        <time>2016-12-10T14:51:14Z</time>
      </trkpt>
      <trkpt lat="45.12244" lon="5.89995">
        <ele>2161.18</ele>
        <time>2016-12-10T14:51:21Z</time>
      </trkpt>
      <trkpt lat="45.12232" lon="5.89992">
        <ele>2158.3</ele>
        <time>2016-12-10T14:51:30Z</time>
      </trkpt>
      <trkpt lat="45.12225" lon="5.89989">
        <ele>2155.89</ele>
        <time>2016-12-10T14:51:36Z</time>
      </trkpt>
      <trkpt lat="45.12213" lon="5.89985">
        <ele>2152.53</ele>
        <time>2016-12-10T14:51:45Z</time>
      </trkpt>
      <trkpt lat="45.12211" lon="5.89986">
        <ele>2152.05</ele>
        <time>2016-12-10T14:51:46Z</time>
      </trkpt>
      <trkpt lat="45.12199" lon="5.89978">
        <ele>2149.16</ele>
        <time>2016-12-10T14:51:55Z</time>
      </trkpt>
      <trkpt lat="45.12193" lon="5.89975">
        <ele>2148.2</ele>
        <time>2016-12-10T14:52:00Z</time>
      </trkpt>
      <trkpt lat="45.1219" lon="5.89975">
        <ele>2147.24</ele>
        <time>2016-12-10T14:52:02Z</time>
      </trkpt>
      <trkpt lat="45.12186" lon="5.89981">
        <ele>2147.24</ele>
        <time>2016-12-10T14:52:07Z</time>
      </trkpt>
      <trkpt lat="45.12185" lon="5.89983">
        <ele>2146.76</ele>
        <time>2016-12-10T14:52:19Z</time>
      </trkpt>
      <trkpt lat="45.12184" lon="5.89981">
        <ele>2146.76</ele>
        <time>2016-12-10T14:52:43Z</time>
      </trkpt>
      <trkpt lat="45.1218" lon="5.89976">
        <ele>2146.28</ele>
        <time>2016-12-10T14:52:49Z</time>
      </trkpt>
      <trkpt lat="45.12164" lon="5.8997">
        <ele>2143.88</ele>
        <time>2016-12-10T14:53:01Z</time>
      </trkpt>
      <trkpt lat="45.12143" lon="5.89969">
        <ele>2141.47</ele>
        <time>2016-12-10T14:53:15Z</time>
      </trkpt>
      <trkpt lat="45.12128" lon="5.89965">
        <ele>2140.51</ele>
        <time>2016-12-10T14:53:26Z</time>
      </trkpt>
      <trkpt lat="45.12124" lon="5.89963">
        <ele>2140.03</ele>
        <time>2016-12-10T14:53:29Z</time>
      </trkpt>
      <trkpt lat="45.12119" lon="5.89958">
        <ele>2139.55</ele>
        <time>2016-12-10T14:53:33Z</time>
      </trkpt>
      <trkpt lat="45.12103" lon="5.89953">
        <ele>2139.07</ele>
        <time>2016-12-10T14:53:45Z</time>
      </trkpt>
      <trkpt lat="45.12092" lon="5.89959">
        <ele>2138.59</ele>
        <time>2016-12-10T14:53:54Z</time>
      </trkpt>
      <trkpt lat="45.12072" lon="5.89951">
        <ele>2138.11</ele>
        <time>2016-12-10T14:54:08Z</time>
      </trkpt>
      <trkpt lat="45.12062" lon="5.89946">
        <ele>2139.55</ele>
        <time>2016-12-10T14:54:16Z</time>
      </trkpt>
      <trkpt lat="45.12059" lon="5.89942">
        <ele>2139.07</ele>
        <time>2016-12-10T14:54:19Z</time>
      </trkpt>
      <trkpt lat="45.1205" lon="5.89938">
        <ele>2139.55</ele>
        <time>2016-12-10T14:54:30Z</time>
      </trkpt>
      <trkpt lat="45.12048" lon="5.89939">
        <ele>2139.07</ele>
        <time>2016-12-10T14:54:41Z</time>
      </trkpt>
      <trkpt lat="45.12049" lon="5.89939">
        <ele>2139.55</ele>
        <time>2016-12-10T14:55:01Z</time>
      </trkpt>
      <trkpt lat="45.12049" lon="5.89939">
        <ele>2139.55</ele>
        <time>2016-12-10T14:55:24Z</time>
      </trkpt>
      <trkpt lat="45.12049" lon="5.89939">
        <ele>2139.55</ele>
        <time>2016-12-10T14:55:38Z</time>
      </trkpt>
      <trkpt lat="45.12049" lon="5.89937">
        <ele>2140.03</ele>
        <time>2016-12-10T14:55:44Z</time>
      </trkpt>
      <trkpt lat="45.12043" lon="5.89923">
        <ele>2138.59</ele>
        <time>2016-12-10T14:55:53Z</time>
      </trkpt>
      <trkpt lat="45.12042" lon="5.89921">
        <ele>2138.59</ele>
        <time>2016-12-10T14:55:54Z</time>
      </trkpt>
      <trkpt lat="45.12038" lon="5.89917">
        <ele>2138.11</ele>
        <time>2016-12-10T14:55:58Z</time>
      </trkpt>
      <trkpt lat="45.12033" lon="5.8991">
        <ele>2137.15</ele>
        <time>2016-12-10T14:56:03Z</time>
      </trkpt>
      <trkpt lat="45.12026" lon="5.899">
        <ele>2137.63</ele>
        <time>2016-12-10T14:56:11Z</time>
      </trkpt>
      <trkpt lat="45.12012" lon="5.89888">
        <ele>2136.67</ele>
        <time>2016-12-10T14:56:23Z</time>
      </trkpt>
      <trkpt lat="45.12001" lon="5.89872">
        <ele>2135.23</ele>
        <time>2016-12-10T14:56:35Z</time>
      </trkpt>
      <trkpt lat="45.11999" lon="5.89872">
        <ele>2135.23</ele>
        <time>2016-12-10T14:56:44Z</time>
      </trkpt>
      <trkpt lat="45.11995" lon="5.89864">
        <ele>2135.71</ele>
        <time>2016-12-10T14:56:50Z</time>
      </trkpt>
      <trkpt lat="45.11992" lon="5.8986">
        <ele>2135.71</ele>
        <time>2016-12-10T14:56:53Z</time>
      </trkpt>
      <trkpt lat="45.11985" lon="5.89856">
        <ele>2135.23</ele>
        <time>2016-12-10T14:56:58Z</time>
      </trkpt>
      <trkpt lat="45.11973" lon="5.89848">
        <ele>2136.19</ele>
        <time>2016-12-10T14:57:07Z</time>
      </trkpt>
      <trkpt lat="45.11962" lon="5.89841">
        <ele>2136.67</ele>
        <time>2016-12-10T14:57:16Z</time>
      </trkpt>
      <trkpt lat="45.11957" lon="5.89839">
        <ele>2135.23</ele>
        <time>2016-12-10T14:57:20Z</time>
      </trkpt>
      <trkpt lat="45.11952" lon="5.89841">
        <ele>2135.71</ele>
        <time>2016-12-10T14:57:24Z</time>
      </trkpt>
      <trkpt lat="45.11943" lon="5.89834">
        <ele>2135.71</ele>
        <time>2016-12-10T14:57:32Z</time>
      </trkpt>
      <trkpt lat="45.11936" lon="5.89834">
        <ele>2134.26</ele>
        <time>2016-12-10T14:57:38Z</time>
      </trkpt>
      <trkpt lat="45.11929" lon="5.89834">
        <ele>2132.34</ele>
        <time>2016-12-10T14:57:42Z</time>
      </trkpt>
      <trkpt lat="45.11916" lon="5.89823">
        <ele>2130.42</ele>
        <time>2016-12-10T14:57:53Z</time>
      </trkpt>
      <trkpt lat="45.11905" lon="5.89812">
        <ele>2128.5</ele>
        <time>2016-12-10T14:58:03Z</time>
      </trkpt>
      <trkpt lat="45.1189" lon="5.89808">
        <ele>2126.57</ele>
        <time>2016-12-10T14:58:13Z</time>
      </trkpt>
      <trkpt lat="45.11876" lon="5.89806">
        <ele>2125.13</ele>
        <time>2016-12-10T14:58:23Z</time>
      </trkpt>
      <trkpt lat="45.11859" lon="5.89802">
        <ele>2123.69</ele>
        <time>2016-12-10T14:58:35Z</time>
      </trkpt>
      <trkpt lat="45.11847" lon="5.89802">
        <ele>2123.69</ele>
        <time>2016-12-10T14:58:44Z</time>
      </trkpt>
      <trkpt lat="45.11843" lon="5.89807">
        <ele>2124.65</ele>
        <time>2016-12-10T14:58:48Z</time>
      </trkpt>
      <trkpt lat="45.11837" lon="5.89814">
        <ele>2124.65</ele>
        <time>2016-12-10T14:58:54Z</time>
      </trkpt>
      <trkpt lat="45.11833" lon="5.89814">
        <ele>2124.65</ele>
        <time>2016-12-10T14:59:03Z</time>
      </trkpt>
      <trkpt lat="45.11833" lon="5.89814">
        <ele>2124.17</ele>
        <time>2016-12-10T14:59:12Z</time>
      </trkpt>
      <trkpt lat="45.11833" lon="5.89815">
        <ele>2124.65</ele>
        <time>2016-12-10T14:59:28Z</time>
      </trkpt>
      <trkpt lat="45.11833" lon="5.89815">
        <ele>2123.69</ele>
        <time>2016-12-10T14:59:44Z</time>
      </trkpt>
      <trkpt lat="45.11833" lon="5.89814">
        <ele>2124.65</ele>
        <time>2016-12-10T14:59:59Z</time>
      </trkpt>
      <trkpt lat="45.11833" lon="5.89814">
        <ele>2124.65</ele>
        <time>2016-12-10T15:00:09Z</time>
      </trkpt>
      <trkpt lat="45.11834" lon="5.89815">
        <ele>2124.65</ele>
        <time>2016-12-10T15:00:22Z</time>
      </trkpt>
      <trkpt lat="45.11831" lon="5.89815">
        <ele>2124.17</ele>
        <time>2016-12-10T15:00:30Z</time>
      </trkpt>
      <trkpt lat="45.11829" lon="5.89811">
        <ele>2123.69</ele>
        <time>2016-12-10T15:00:40Z</time>
      </trkpt>
      <trkpt lat="45.11829" lon="5.89811">
        <ele>2124.17</ele>
        <time>2016-12-10T15:00:55Z</time>
      </trkpt>
      <trkpt lat="45.11827" lon="5.89803">
        <ele>2123.21</ele>
        <time>2016-12-10T15:01:05Z</time>
      </trkpt>
      <trkpt lat="45.11827" lon="5.89802">
        <ele>2123.69</ele>
        <time>2016-12-10T15:01:17Z</time>
      </trkpt>
      <trkpt lat="45.11825" lon="5.89795">
        <ele>2122.73</ele>
        <time>2016-12-10T15:01:22Z</time>
      </trkpt>
      <trkpt lat="45.11815" lon="5.89793">
        <ele>2121.29</ele>
        <time>2016-12-10T15:01:30Z</time>
      </trkpt>
      <trkpt lat="45.11809" lon="5.89788">
        <ele>2120.32</ele>
        <time>2016-12-10T15:01:36Z</time>
      </trkpt>
      <trkpt lat="45.11798" lon="5.89791">
        <ele>2119.84</ele>
        <time>2016-12-10T15:01:49Z</time>
      </trkpt>
      <trkpt lat="45.11797" lon="5.89792">
        <ele>2119.84</ele>
        <time>2016-12-10T15:02:09Z</time>
      </trkpt>
      <trkpt lat="45.11797" lon="5.89792">
        <ele>2119.84</ele>
        <time>2016-12-10T15:02:18Z</time>
      </trkpt>
      <trkpt lat="45.11798" lon="5.89784">
        <ele>2120.32</ele>
        <time>2016-12-10T15:02:23Z</time>
      </trkpt>
      <trkpt lat="45.11791" lon="5.89769">
        <ele>2119.36</ele>
        <time>2016-12-10T15:02:34Z</time>
      </trkpt>
      <trkpt lat="45.1179" lon="5.89769">
        <ele>2118.88</ele>
        <time>2016-12-10T15:02:35Z</time>
      </trkpt>
      <trkpt lat="45.11781" lon="5.89759">
        <ele>2117.92</ele>
        <time>2016-12-10T15:02:44Z</time>
      </trkpt>
      <trkpt lat="45.11776" lon="5.89756">
        <ele>2117.92</ele>
        <time>2016-12-10T15:02:48Z</time>
      </trkpt>
      <trkpt lat="45.11763" lon="5.89755">
        <ele>2117.44</ele>
        <time>2016-12-10T15:02:58Z</time>
      </trkpt>
      <trkpt lat="45.11758" lon="5.89759">
        <ele>2117.92</ele>
        <time>2016-12-10T15:03:02Z</time>
      </trkpt>
      <trkpt lat="45.11759" lon="5.89774">
        <ele>2117.44</ele>
        <time>2016-12-10T15:03:13Z</time>
      </trkpt>
      <trkpt lat="45.11759" lon="5.89773">
        <ele>2116.48</ele>
        <time>2016-12-10T15:03:29Z</time>
      </trkpt>
      <trkpt lat="45.11758" lon="5.89774">
        <ele>2117.44</ele>
        <time>2016-12-10T15:03:38Z</time>
      </trkpt>
      <trkpt lat="45.11758" lon="5.89771">
        <ele>2117.44</ele>
        <time>2016-12-10T15:03:40Z</time>
      </trkpt>
      <trkpt lat="45.11757" lon="5.89769">
        <ele>2117.44</ele>
        <time>2016-12-10T15:03:42Z</time>
      </trkpt>
      <trkpt lat="45.11756" lon="5.89766">
        <ele>2116.96</ele>
        <time>2016-12-10T15:03:45Z</time>
      </trkpt>
      <trkpt lat="45.11747" lon="5.89758">
        <ele>2117.44</ele>
        <time>2016-12-10T15:03:57Z</time>
      </trkpt>
      <trkpt lat="45.11747" lon="5.89758">
        <ele>2117.44</ele>
        <time>2016-12-10T15:04:18Z</time>
      </trkpt>
      <trkpt lat="45.11747" lon="5.89757">
        <ele>2116.96</ele>
        <time>2016-12-10T15:04:40Z</time>
      </trkpt>
      <trkpt lat="45.11746" lon="5.89758">
        <ele>2116.96</ele>
        <time>2016-12-10T15:05:03Z</time>
      </trkpt>
      <trkpt lat="45.11742" lon="5.89752">
        <ele>2116.96</ele>
        <time>2016-12-10T15:05:09Z</time>
      </trkpt>
      <trkpt lat="45.11738" lon="5.89745">
        <ele>2116</ele>
        <time>2016-12-10T15:05:15Z</time>
      </trkpt>
      <trkpt lat="45.11729" lon="5.89735">
        <ele>2115.52</ele>
        <time>2016-12-10T15:05:23Z</time>
      </trkpt>
      <trkpt lat="45.11725" lon="5.8973">
        <ele>2114.56</ele>
        <time>2016-12-10T15:05:28Z</time>
      </trkpt>
      <trkpt lat="45.11717" lon="5.8972">
        <ele>2113.12</ele>
        <time>2016-12-10T15:05:40Z</time>
      </trkpt>
      <trkpt lat="45.11717" lon="5.89721">
        <ele>2113.6</ele>
        <time>2016-12-10T15:05:42Z</time>
      </trkpt>
      <trkpt lat="45.11715" lon="5.89715">
        <ele>2113.12</ele>
        <time>2016-12-10T15:05:54Z</time>
      </trkpt>
      <trkpt lat="45.11714" lon="5.89713">
        <ele>2112.15</ele>
        <time>2016-12-10T15:05:56Z</time>
      </trkpt>
      <trkpt lat="45.11711" lon="5.89708">
        <ele>2111.67</ele>
        <time>2016-12-10T15:06:05Z</time>
      </trkpt>
      <trkpt lat="45.11712" lon="5.89707">
        <ele>2110.71</ele>
        <time>2016-12-10T15:06:23Z</time>
      </trkpt>
      <trkpt lat="45.11711" lon="5.89706">
        <ele>2110.71</ele>
        <time>2016-12-10T15:06:25Z</time>
      </trkpt>
      <trkpt lat="45.11708" lon="5.89698">
        <ele>2110.23</ele>
        <time>2016-12-10T15:06:30Z</time>
      </trkpt>
      <trkpt lat="45.11705" lon="5.89695">
        <ele>2109.27</ele>
        <time>2016-12-10T15:06:33Z</time>
      </trkpt>
      <trkpt lat="45.11698" lon="5.89689">
        <ele>2107.35</ele>
        <time>2016-12-10T15:06:40Z</time>
      </trkpt>
      <trkpt lat="45.11695" lon="5.89686">
        <ele>2106.87</ele>
        <time>2016-12-10T15:06:42Z</time>
      </trkpt>
      <trkpt lat="45.11695" lon="5.89682">
        <ele>2106.39</ele>
        <time>2016-12-10T15:06:45Z</time>
      </trkpt>
      <trkpt lat="45.11691" lon="5.8968">
        <ele>2105.42</ele>
        <time>2016-12-10T15:06:49Z</time>
      </trkpt>
      <trkpt lat="45.11684" lon="5.89682">
        <ele>2103.02</ele>
        <time>2016-12-10T15:06:55Z</time>
      </trkpt>
      <trkpt lat="45.11676" lon="5.89682">
        <ele>2100.14</ele>
        <time>2016-12-10T15:07:02Z</time>
      </trkpt>
      <trkpt lat="45.1167" lon="5.89684">
        <ele>2098.21</ele>
        <time>2016-12-10T15:07:07Z</time>
      </trkpt>
      <trkpt lat="45.11669" lon="5.89684">
        <ele>2097.73</ele>
        <time>2016-12-10T15:07:08Z</time>
      </trkpt>
      <trkpt lat="45.11662" lon="5.89685">
        <ele>2095.81</ele>
        <time>2016-12-10T15:07:14Z</time>
      </trkpt>
      <trkpt lat="45.11652" lon="5.89686">
        <ele>2091.97</ele>
        <time>2016-12-10T15:07:23Z</time>
      </trkpt>
      <trkpt lat="45.11651" lon="5.89686">
        <ele>2091.97</ele>
        <time>2016-12-10T15:07:24Z</time>
      </trkpt>
      <trkpt lat="45.11648" lon="5.89686">
        <ele>2090.04</ele>
        <time>2016-12-10T15:07:27Z</time>
      </trkpt>
      <trkpt lat="45.11641" lon="5.89689">
        <ele>2087.64</ele>
        <time>2016-12-10T15:07:37Z</time>
      </trkpt>
      <trkpt lat="45.11641" lon="5.89687">
        <ele>2087.64</ele>
        <time>2016-12-10T15:07:52Z</time>
      </trkpt>
      <trkpt lat="45.11629" lon="5.89686">
        <ele>2083.79</ele>
        <time>2016-12-10T15:08:03Z</time>
      </trkpt>
      <trkpt lat="45.11627" lon="5.89687">
        <ele>2083.31</ele>
        <time>2016-12-10T15:08:05Z</time>
      </trkpt>
      <trkpt lat="45.11623" lon="5.89683">
        <ele>2081.39</ele>
        <time>2016-12-10T15:08:11Z</time>
      </trkpt>
      <trkpt lat="45.11623" lon="5.89678">
        <ele>2080.43</ele>
        <time>2016-12-10T15:08:14Z</time>
      </trkpt>
      <trkpt lat="45.11622" lon="5.89662">
        <ele>2077.07</ele>
        <time>2016-12-10T15:08:24Z</time>
      </trkpt>
      <trkpt lat="45.11622" lon="5.89661">
        <ele>2077.07</ele>
        <time>2016-12-10T15:08:25Z</time>
      </trkpt>
      <trkpt lat="45.1162" lon="5.89657">
        <ele>2075.14</ele>
        <time>2016-12-10T15:08:28Z</time>
      </trkpt>
      <trkpt lat="45.11617" lon="5.89654">
        <ele>2073.7</ele>
        <time>2016-12-10T15:08:32Z</time>
      </trkpt>
      <trkpt lat="45.11612" lon="5.8965">
        <ele>2071.78</ele>
        <time>2016-12-10T15:08:37Z</time>
      </trkpt>
      <trkpt lat="45.1161" lon="5.89649">
        <ele>2070.34</ele>
        <time>2016-12-10T15:08:39Z</time>
      </trkpt>
      <trkpt lat="45.11608" lon="5.89639">
        <ele>2068.41</ele>
        <time>2016-12-10T15:08:46Z</time>
      </trkpt>
      <trkpt lat="45.11601" lon="5.89637">
        <ele>2066.49</ele>
        <time>2016-12-10T15:08:52Z</time>
      </trkpt>
      <trkpt lat="45.11586" lon="5.8964">
        <ele>2062.65</ele>
        <time>2016-12-10T15:09:03Z</time>
      </trkpt>
      <trkpt lat="45.11583" lon="5.89637">
        <ele>2062.17</ele>
        <time>2016-12-10T15:09:08Z</time>
      </trkpt>
      <trkpt lat="45.11576" lon="5.89639">
        <ele>2061.2</ele>
        <time>2016-12-10T15:09:14Z</time>
      </trkpt>
      <trkpt lat="45.11566" lon="5.89645">
        <ele>2057.84</ele>
        <time>2016-12-10T15:09:23Z</time>
      </trkpt>
      <trkpt lat="45.11565" lon="5.89645">
        <ele>2057.84</ele>
        <time>2016-12-10T15:09:25Z</time>
      </trkpt>
      <trkpt lat="45.11559" lon="5.89645">
        <ele>2055.92</ele>
        <time>2016-12-10T15:09:30Z</time>
      </trkpt>
      <trkpt lat="45.11557" lon="5.89642">
        <ele>2054.96</ele>
        <time>2016-12-10T15:09:33Z</time>
      </trkpt>
      <trkpt lat="45.11554" lon="5.89629">
        <ele>2051.59</ele>
        <time>2016-12-10T15:09:42Z</time>
      </trkpt>
      <trkpt lat="45.11552" lon="5.89617">
        <ele>2048.23</ele>
        <time>2016-12-10T15:09:50Z</time>
      </trkpt>
      <trkpt lat="45.1155" lon="5.89615">
        <ele>2047.75</ele>
        <time>2016-12-10T15:09:52Z</time>
      </trkpt>
      <trkpt lat="45.11548" lon="5.89614">
        <ele>2046.78</ele>
        <time>2016-12-10T15:09:54Z</time>
      </trkpt>
      <trkpt lat="45.11545" lon="5.89609">
        <ele>2045.34</ele>
        <time>2016-12-10T15:09:58Z</time>
      </trkpt>
      <trkpt lat="45.11539" lon="5.89597">
        <ele>2041.5</ele>
        <time>2016-12-10T15:10:08Z</time>
      </trkpt>
      <trkpt lat="45.11538" lon="5.89596">
        <ele>2040.54</ele>
        <time>2016-12-10T15:10:09Z</time>
      </trkpt>
      <trkpt lat="45.11536" lon="5.89593">
        <ele>2040.05</ele>
        <time>2016-12-10T15:10:12Z</time>
      </trkpt>
      <trkpt lat="45.11532" lon="5.89591">
        <ele>2038.61</ele>
        <time>2016-12-10T15:10:16Z</time>
      </trkpt>
      <trkpt lat="45.11529" lon="5.89586">
        <ele>2036.69</ele>
        <time>2016-12-10T15:10:20Z</time>
      </trkpt>
      <trkpt lat="45.11524" lon="5.89578">
        <ele>2035.73</ele>
        <time>2016-12-10T15:10:26Z</time>
      </trkpt>
      <trkpt lat="45.11519" lon="5.89556">
        <ele>2033.33</ele>
        <time>2016-12-10T15:10:39Z</time>
      </trkpt>
      <trkpt lat="45.11519" lon="5.8955">
        <ele>2032.84</ele>
        <time>2016-12-10T15:10:42Z</time>
      </trkpt>
      <trkpt lat="45.11519" lon="5.89546">
        <ele>2031.4</ele>
        <time>2016-12-10T15:10:45Z</time>
      </trkpt>
      <trkpt lat="45.11519" lon="5.89544">
        <ele>2030.92</ele>
        <time>2016-12-10T15:10:47Z</time>
      </trkpt>
      <trkpt lat="45.11517" lon="5.89528">
        <ele>2028.04</ele>
        <time>2016-12-10T15:10:56Z</time>
      </trkpt>
      <trkpt lat="45.11513" lon="5.89518">
        <ele>2026.6</ele>
        <time>2016-12-10T15:11:04Z</time>
      </trkpt>
      <trkpt lat="45.11509" lon="5.89516">
        <ele>2025.15</ele>
        <time>2016-12-10T15:11:07Z</time>
      </trkpt>
      <trkpt lat="45.11508" lon="5.89515">
        <ele>2024.67</ele>
        <time>2016-12-10T15:11:09Z</time>
      </trkpt>
      <trkpt lat="45.1151" lon="5.89497">
        <ele>2021.79</ele>
        <time>2016-12-10T15:11:19Z</time>
      </trkpt>
      <trkpt lat="45.11512" lon="5.89472">
        <ele>2019.87</ele>
        <time>2016-12-10T15:11:31Z</time>
      </trkpt>
      <trkpt lat="45.11515" lon="5.89452">
        <ele>2020.35</ele>
        <time>2016-12-10T15:11:42Z</time>
      </trkpt>
      <trkpt lat="45.11517" lon="5.89445">
        <ele>2019.87</ele>
        <time>2016-12-10T15:11:46Z</time>
      </trkpt>
      <trkpt lat="45.11523" lon="5.89426">
        <ele>2019.39</ele>
        <time>2016-12-10T15:11:57Z</time>
      </trkpt>
      <trkpt lat="45.11524" lon="5.89415">
        <ele>2018.91</ele>
        <time>2016-12-10T15:12:03Z</time>
      </trkpt>
      <trkpt lat="45.11521" lon="5.89404">
        <ele>2018.43</ele>
        <time>2016-12-10T15:12:14Z</time>
      </trkpt>
      <trkpt lat="45.11521" lon="5.89404">
        <ele>2016.98</ele>
        <time>2016-12-10T15:12:23Z</time>
      </trkpt>
      <trkpt lat="45.11521" lon="5.89405">
        <ele>2018.43</ele>
        <time>2016-12-10T15:12:26Z</time>
      </trkpt>
      <trkpt lat="45.1152" lon="5.894">
        <ele>2018.43</ele>
        <time>2016-12-10T15:12:29Z</time>
      </trkpt>
      <trkpt lat="45.11518" lon="5.8939">
        <ele>2017.46</ele>
        <time>2016-12-10T15:12:35Z</time>
      </trkpt>
      <trkpt lat="45.11512" lon="5.89371">
        <ele>2016.5</ele>
        <time>2016-12-10T15:12:47Z</time>
      </trkpt>
      <trkpt lat="45.1151" lon="5.8935">
        <ele>2016.5</ele>
        <time>2016-12-10T15:12:59Z</time>
      </trkpt>
      <trkpt lat="45.11509" lon="5.89344">
        <ele>2016.02</ele>
        <time>2016-12-10T15:13:02Z</time>
      </trkpt>
      <trkpt lat="45.11508" lon="5.89333">
        <ele>2015.54</ele>
        <time>2016-12-10T15:13:08Z</time>
      </trkpt>
      <trkpt lat="45.11509" lon="5.89312">
        <ele>2015.54</ele>
        <time>2016-12-10T15:13:20Z</time>
      </trkpt>
      <trkpt lat="45.1151" lon="5.89304">
        <ele>2015.54</ele>
        <time>2016-12-10T15:13:25Z</time>
      </trkpt>
      <trkpt lat="45.11512" lon="5.89286">
        <ele>2014.58</ele>
        <time>2016-12-10T15:13:36Z</time>
      </trkpt>
      <trkpt lat="45.11512" lon="5.89283">
        <ele>2015.06</ele>
        <time>2016-12-10T15:13:38Z</time>
      </trkpt>
      <trkpt lat="45.11512" lon="5.89275">
        <ele>2014.1</ele>
        <time>2016-12-10T15:13:42Z</time>
      </trkpt>
      <trkpt lat="45.11517" lon="5.89252">
        <ele>2012.18</ele>
        <time>2016-12-10T15:13:56Z</time>
      </trkpt>
      <trkpt lat="45.1152" lon="5.89233">
        <ele>2009.29</ele>
        <time>2016-12-10T15:14:07Z</time>
      </trkpt>
      <trkpt lat="45.11525" lon="5.89222">
        <ele>2007.85</ele>
        <time>2016-12-10T15:14:14Z</time>
      </trkpt>
      <trkpt lat="45.11523" lon="5.89214">
        <ele>2007.37</ele>
        <time>2016-12-10T15:14:18Z</time>
      </trkpt>
      <trkpt lat="45.11517" lon="5.89194">
        <ele>2005.45</ele>
        <time>2016-12-10T15:14:30Z</time>
      </trkpt>
      <trkpt lat="45.11515" lon="5.89187">
        <ele>2004.01</ele>
        <time>2016-12-10T15:14:34Z</time>
      </trkpt>
      <trkpt lat="45.11513" lon="5.89177">
        <ele>2003.52</ele>
        <time>2016-12-10T15:14:39Z</time>
      </trkpt>
      <trkpt lat="45.11509" lon="5.89174">
        <ele>2003.52</ele>
        <time>2016-12-10T15:14:47Z</time>
      </trkpt>
      <trkpt lat="45.11504" lon="5.89159">
        <ele>2000.64</ele>
        <time>2016-12-10T15:14:57Z</time>
      </trkpt>
      <trkpt lat="45.11501" lon="5.89139">
        <ele>1997.76</ele>
        <time>2016-12-10T15:15:09Z</time>
      </trkpt>
      <trkpt lat="45.11494" lon="5.89127">
        <ele>1994.87</ele>
        <time>2016-12-10T15:15:18Z</time>
      </trkpt>
      <trkpt lat="45.11489" lon="5.89122">
        <ele>1992.47</ele>
        <time>2016-12-10T15:15:23Z</time>
      </trkpt>
      <trkpt lat="45.11486" lon="5.89119">
        <ele>1992.47</ele>
        <time>2016-12-10T15:15:25Z</time>
      </trkpt>
      <trkpt lat="45.11484" lon="5.89117">
        <ele>1991.99</ele>
        <time>2016-12-10T15:15:27Z</time>
      </trkpt>
      <trkpt lat="45.11479" lon="5.89112">
        <ele>1991.03</ele>
        <time>2016-12-10T15:15:31Z</time>
      </trkpt>
      <trkpt lat="45.11472" lon="5.89108">
        <ele>1990.07</ele>
        <time>2016-12-10T15:15:37Z</time>
      </trkpt>
      <trkpt lat="45.11469" lon="5.89107">
        <ele>1989.59</ele>
        <time>2016-12-10T15:15:39Z</time>
      </trkpt>
      <trkpt lat="45.11464" lon="5.891">
        <ele>1988.62</ele>
        <time>2016-12-10T15:15:44Z</time>
      </trkpt>
      <trkpt lat="45.11459" lon="5.89096">
        <ele>1986.7</ele>
        <time>2016-12-10T15:15:49Z</time>
      </trkpt>
      <trkpt lat="45.11456" lon="5.89092">
        <ele>1985.74</ele>
        <time>2016-12-10T15:15:52Z</time>
      </trkpt>
      <trkpt lat="45.11448" lon="5.89082">
        <ele>1982.86</ele>
        <time>2016-12-10T15:16:01Z</time>
      </trkpt>
      <trkpt lat="45.1144" lon="5.89066">
        <ele>1979.97</ele>
        <time>2016-12-10T15:16:11Z</time>
      </trkpt>
      <trkpt lat="45.11437" lon="5.89062">
        <ele>1979.01</ele>
        <time>2016-12-10T15:16:14Z</time>
      </trkpt>
      <trkpt lat="45.11431" lon="5.89055">
        <ele>1978.53</ele>
        <time>2016-12-10T15:16:20Z</time>
      </trkpt>
      <trkpt lat="45.11427" lon="5.89046">
        <ele>1977.09</ele>
        <time>2016-12-10T15:16:26Z</time>
      </trkpt>
      <trkpt lat="45.11419" lon="5.89031">
        <ele>1975.17</ele>
        <time>2016-12-10T15:16:37Z</time>
      </trkpt>
      <trkpt lat="45.11418" lon="5.8903">
        <ele>1975.65</ele>
        <time>2016-12-10T15:16:38Z</time>
      </trkpt>
      <trkpt lat="45.11414" lon="5.89017">
        <ele>1973.24</ele>
        <time>2016-12-10T15:16:47Z</time>
      </trkpt>
      <trkpt lat="45.11411" lon="5.89012">
        <ele>1970.84</ele>
        <time>2016-12-10T15:16:52Z</time>
      </trkpt>
      <trkpt lat="45.11407" lon="5.89004">
        <ele>1968.92</ele>
        <time>2016-12-10T15:17:04Z</time>
      </trkpt>
      <trkpt lat="45.11403" lon="5.89002">
        <ele>1967.48</ele>
        <time>2016-12-10T15:17:23Z</time>
      </trkpt>
      <trkpt lat="45.11395" lon="5.88993">
        <ele>1963.63</ele>
        <time>2016-12-10T15:17:34Z</time>
      </trkpt>
      <trkpt lat="45.11394" lon="5.88992">
        <ele>1963.15</ele>
        <time>2016-12-10T15:17:37Z</time>
      </trkpt>
      <trkpt lat="45.11394" lon="5.8899">
        <ele>1962.19</ele>
        <time>2016-12-10T15:17:44Z</time>
      </trkpt>
      <trkpt lat="45.11397" lon="5.88983">
        <ele>1959.78</ele>
        <time>2016-12-10T15:17:51Z</time>
      </trkpt>
      <trkpt lat="45.11397" lon="5.8898">
        <ele>1958.82</ele>
        <time>2016-12-10T15:17:53Z</time>
      </trkpt>
      <trkpt lat="45.11399" lon="5.88977">
        <ele>1957.86</ele>
        <time>2016-12-10T15:17:56Z</time>
      </trkpt>
      <trkpt lat="45.11401" lon="5.88969">
        <ele>1954.98</ele>
        <time>2016-12-10T15:18:01Z</time>
      </trkpt>
      <trkpt lat="45.11406" lon="5.8896">
        <ele>1954.5</ele>
        <time>2016-12-10T15:18:09Z</time>
      </trkpt>
      <trkpt lat="45.11408" lon="5.88956">
        <ele>1953.54</ele>
        <time>2016-12-10T15:18:12Z</time>
      </trkpt>
      <trkpt lat="45.11415" lon="5.8895">
        <ele>1951.61</ele>
        <time>2016-12-10T15:18:22Z</time>
      </trkpt>
      <trkpt lat="45.11422" lon="5.88938">
        <ele>1949.21</ele>
        <time>2016-12-10T15:18:32Z</time>
      </trkpt>
      <trkpt lat="45.11423" lon="5.88935">
        <ele>1948.73</ele>
        <time>2016-12-10T15:18:35Z</time>
      </trkpt>
      <trkpt lat="45.11422" lon="5.88931">
        <ele>1947.29</ele>
        <time>2016-12-10T15:18:38Z</time>
      </trkpt>
      <trkpt lat="45.11422" lon="5.88924">
        <ele>1944.4</ele>
        <time>2016-12-10T15:18:43Z</time>
      </trkpt>
      <trkpt lat="45.11422" lon="5.88923">
        <ele>1944.4</ele>
        <time>2016-12-10T15:18:50Z</time>
      </trkpt>
      <trkpt lat="45.11423" lon="5.88915">
        <ele>1942.48</ele>
        <time>2016-12-10T15:18:55Z</time>
      </trkpt>
      <trkpt lat="45.11432" lon="5.88896">
        <ele>1940.08</ele>
        <time>2016-12-10T15:19:06Z</time>
      </trkpt>
      <trkpt lat="45.11438" lon="5.88879">
        <ele>1939.6</ele>
        <time>2016-12-10T15:19:16Z</time>
      </trkpt>
      <trkpt lat="45.1144" lon="5.88869">
        <ele>1940.08</ele>
        <time>2016-12-10T15:19:21Z</time>
      </trkpt>
      <trkpt lat="45.11441" lon="5.88856">
        <ele>1939.6</ele>
        <time>2016-12-10T15:19:28Z</time>
      </trkpt>
      <trkpt lat="45.1144" lon="5.88831">
        <ele>1936.71</ele>
        <time>2016-12-10T15:19:41Z</time>
      </trkpt>
      <trkpt lat="45.11443" lon="5.88813">
        <ele>1935.27</ele>
        <time>2016-12-10T15:19:50Z</time>
      </trkpt>
      <trkpt lat="45.11445" lon="5.88804">
        <ele>1934.79</ele>
        <time>2016-12-10T15:19:55Z</time>
      </trkpt>
      <trkpt lat="45.11442" lon="5.88797">
        <ele>1933.35</ele>
        <time>2016-12-10T15:20:00Z</time>
      </trkpt>
      <trkpt lat="45.11443" lon="5.8878">
        <ele>1930.46</ele>
        <time>2016-12-10T15:20:10Z</time>
      </trkpt>
      <trkpt lat="45.11445" lon="5.88761">
        <ele>1928.06</ele>
        <time>2016-12-10T15:20:20Z</time>
      </trkpt>
      <trkpt lat="45.11442" lon="5.88754">
        <ele>1926.62</ele>
        <time>2016-12-10T15:20:25Z</time>
      </trkpt>
      <trkpt lat="45.1144" lon="5.88751">
        <ele>1926.14</ele>
        <time>2016-12-10T15:20:27Z</time>
      </trkpt>
      <trkpt lat="45.11435" lon="5.88743">
        <ele>1924.22</ele>
        <time>2016-12-10T15:20:33Z</time>
      </trkpt>
      <trkpt lat="45.11427" lon="5.88732">
        <ele>1920.85</ele>
        <time>2016-12-10T15:20:43Z</time>
      </trkpt>
      <trkpt lat="45.11421" lon="5.88728">
        <ele>1918.45</ele>
        <time>2016-12-10T15:20:48Z</time>
      </trkpt>
      <trkpt lat="45.11413" lon="5.88715">
        <ele>1914.6</ele>
        <time>2016-12-10T15:20:58Z</time>
      </trkpt>
      <trkpt lat="45.11411" lon="5.8871">
        <ele>1913.64</ele>
        <time>2016-12-10T15:21:02Z</time>
      </trkpt>
      <trkpt lat="45.1141" lon="5.88707">
        <ele>1912.68</ele>
        <time>2016-12-10T15:21:04Z</time>
      </trkpt>
      <trkpt lat="45.11407" lon="5.887">
        <ele>1911.24</ele>
        <time>2016-12-10T15:21:09Z</time>
      </trkpt>
      <trkpt lat="45.11406" lon="5.88696">
        <ele>1909.8</ele>
        <time>2016-12-10T15:21:12Z</time>
      </trkpt>
      <trkpt lat="45.11409" lon="5.88683">
        <ele>1906.43</ele>
        <time>2016-12-10T15:21:19Z</time>
      </trkpt>
      <trkpt lat="45.11409" lon="5.88675">
        <ele>1904.99</ele>
        <time>2016-12-10T15:21:23Z</time>
      </trkpt>
      <trkpt lat="45.11409" lon="5.8867">
        <ele>1904.51</ele>
        <time>2016-12-10T15:21:25Z</time>
      </trkpt>
      <trkpt lat="45.11404" lon="5.88642">
        <ele>1903.55</ele>
        <time>2016-12-10T15:21:39Z</time>
      </trkpt>
      <trkpt lat="45.11397" lon="5.88623">
        <ele>1903.07</ele>
        <time>2016-12-10T15:21:50Z</time>
      </trkpt>
      <trkpt lat="45.1139" lon="5.88606">
        <ele>1903.07</ele>
        <time>2016-12-10T15:22:00Z</time>
      </trkpt>
      <trkpt lat="45.11385" lon="5.88598">
        <ele>1901.63</ele>
        <time>2016-12-10T15:22:06Z</time>
      </trkpt>
      <trkpt lat="45.11378" lon="5.88592">
        <ele>1901.14</ele>
        <time>2016-12-10T15:22:12Z</time>
      </trkpt>
      <trkpt lat="45.11376" lon="5.88591">
        <ele>1901.14</ele>
        <time>2016-12-10T15:22:14Z</time>
      </trkpt>
      <trkpt lat="45.11366" lon="5.88582">
        <ele>1897.78</ele>
        <time>2016-12-10T15:22:24Z</time>
      </trkpt>
      <trkpt lat="45.11362" lon="5.88576">
        <ele>1896.34</ele>
        <time>2016-12-10T15:22:29Z</time>
      </trkpt>
      <trkpt lat="45.11359" lon="5.88574">
        <ele>1894.9</ele>
        <time>2016-12-10T15:22:32Z</time>
      </trkpt>
      <trkpt lat="45.11357" lon="5.88573">
        <ele>1894.42</ele>
        <time>2016-12-10T15:22:33Z</time>
      </trkpt>
      <trkpt lat="45.1135" lon="5.88566">
        <ele>1892.01</ele>
        <time>2016-12-10T15:22:41Z</time>
      </trkpt>
      <trkpt lat="45.11339" lon="5.8856">
        <ele>1889.13</ele>
        <time>2016-12-10T15:22:49Z</time>
      </trkpt>
      <trkpt lat="45.11328" lon="5.88553">
        <ele>1887.21</ele>
        <time>2016-12-10T15:22:57Z</time>
      </trkpt>
      <trkpt lat="45.11318" lon="5.8854">
        <ele>1886.24</ele>
        <time>2016-12-10T15:23:07Z</time>
      </trkpt>
      <trkpt lat="45.11314" lon="5.88531">
        <ele>1886.24</ele>
        <time>2016-12-10T15:23:12Z</time>
      </trkpt>
      <trkpt lat="45.11305" lon="5.8851">
        <ele>1884.32</ele>
        <time>2016-12-10T15:23:25Z</time>
      </trkpt>
      <trkpt lat="45.11301" lon="5.88497">
        <ele>1883.84</ele>
        <time>2016-12-10T15:23:32Z</time>
      </trkpt>
      <trkpt lat="45.11299" lon="5.88487">
        <ele>1883.84</ele>
        <time>2016-12-10T15:23:37Z</time>
      </trkpt>
      <trkpt lat="45.11299" lon="5.88481">
        <ele>1882.88</ele>
        <time>2016-12-10T15:23:41Z</time>
      </trkpt>
      <trkpt lat="45.11299" lon="5.88477">
        <ele>1883.36</ele>
        <time>2016-12-10T15:23:43Z</time>
      </trkpt>
      <trkpt lat="45.11301" lon="5.88457">
        <ele>1881.44</ele>
        <time>2016-12-10T15:23:54Z</time>
      </trkpt>
      <trkpt lat="45.11303" lon="5.88451">
        <ele>1881.44</ele>
        <time>2016-12-10T15:23:57Z</time>
      </trkpt>
      <trkpt lat="45.11308" lon="5.88428">
        <ele>1880</ele>
        <time>2016-12-10T15:24:09Z</time>
      </trkpt>
      <trkpt lat="45.1131" lon="5.88423">
        <ele>1879.51</ele>
        <time>2016-12-10T15:24:12Z</time>
      </trkpt>
      <trkpt lat="45.11313" lon="5.88416">
        <ele>1879.51</ele>
        <time>2016-12-10T15:24:17Z</time>
      </trkpt>
      <trkpt lat="45.11321" lon="5.88404">
        <ele>1878.07</ele>
        <time>2016-12-10T15:24:25Z</time>
      </trkpt>
      <trkpt lat="45.11329" lon="5.88397">
        <ele>1877.11</ele>
        <time>2016-12-10T15:24:32Z</time>
      </trkpt>
      <trkpt lat="45.11342" lon="5.88387">
        <ele>1874.23</ele>
        <time>2016-12-10T15:24:44Z</time>
      </trkpt>
      <trkpt lat="45.11351" lon="5.88381">
        <ele>1871.82</ele>
        <time>2016-12-10T15:24:51Z</time>
      </trkpt>
      <trkpt lat="45.11359" lon="5.88366">
        <ele>1868.94</ele>
        <time>2016-12-10T15:25:03Z</time>
      </trkpt>
      <trkpt lat="45.11358" lon="5.88354">
        <ele>1866.54</ele>
        <time>2016-12-10T15:25:11Z</time>
      </trkpt>
      <trkpt lat="45.11358" lon="5.88348">
        <ele>1865.09</ele>
        <time>2016-12-10T15:25:15Z</time>
      </trkpt>
      <trkpt lat="45.11357" lon="5.88339">
        <ele>1863.17</ele>
        <time>2016-12-10T15:25:21Z</time>
      </trkpt>
      <trkpt lat="45.11359" lon="5.88331">
        <ele>1861.73</ele>
        <time>2016-12-10T15:25:32Z</time>
      </trkpt>
      <trkpt lat="45.11361" lon="5.88328">
        <ele>1861.25</ele>
        <time>2016-12-10T15:25:43Z</time>
      </trkpt>
      <trkpt lat="45.11363" lon="5.88327">
        <ele>1861.25</ele>
        <time>2016-12-10T15:26:09Z</time>
      </trkpt>
      <trkpt lat="45.11363" lon="5.88327">
        <ele>1861.73</ele>
        <time>2016-12-10T15:26:27Z</time>
      </trkpt>
      <trkpt lat="45.11363" lon="5.88327">
        <ele>1861.25</ele>
        <time>2016-12-10T15:26:49Z</time>
      </trkpt>
      <trkpt lat="45.11363" lon="5.88322">
        <ele>1859.33</ele>
        <time>2016-12-10T15:27:02Z</time>
      </trkpt>
      <trkpt lat="45.11363" lon="5.88319">
        <ele>1857.89</ele>
        <time>2016-12-10T15:27:11Z</time>
      </trkpt>
      <trkpt lat="45.11362" lon="5.88319">
        <ele>1858.37</ele>
        <time>2016-12-10T15:27:31Z</time>
      </trkpt>
      <trkpt lat="45.11363" lon="5.88318">
        <ele>1858.37</ele>
        <time>2016-12-10T15:28:02Z</time>
      </trkpt>
      <trkpt lat="45.11363" lon="5.88317">
        <ele>1858.37</ele>
        <time>2016-12-10T15:28:31Z</time>
      </trkpt>
      <trkpt lat="45.11363" lon="5.88318">
        <ele>1858.37</ele>
        <time>2016-12-10T15:28:53Z</time>
      </trkpt>
      <trkpt lat="45.11363" lon="5.88317">
        <ele>1858.37</ele>
        <time>2016-12-10T15:29:20Z</time>
      </trkpt>
      <trkpt lat="45.11363" lon="5.88317">
        <ele>1858.85</ele>
        <time>2016-12-10T15:29:44Z</time>
      </trkpt>
      <trkpt lat="45.11363" lon="5.88316">
        <ele>1858.85</ele>
        <time>2016-12-10T15:30:05Z</time>
      </trkpt>
      <trkpt lat="45.11363" lon="5.88316">
        <ele>1858.37</ele>
        <time>2016-12-10T15:30:32Z</time>
      </trkpt>
      <trkpt lat="45.11363" lon="5.88316">
        <ele>1858.37</ele>
        <time>2016-12-10T15:30:59Z</time>
      </trkpt>
      <trkpt lat="45.11363" lon="5.88316">
        <ele>1858.37</ele>
        <time>2016-12-10T15:31:34Z</time>
      </trkpt>
      <trkpt lat="45.11363" lon="5.88316">
        <ele>1858.37</ele>
        <time>2016-12-10T15:32:00Z</time>
      </trkpt>
      <trkpt lat="45.11363" lon="5.88317">
        <ele>1858.37</ele>
        <time>2016-12-10T15:32:26Z</time>
      </trkpt>
      <trkpt lat="45.11363" lon="5.88317">
        <ele>1858.85</ele>
        <time>2016-12-10T15:32:48Z</time>
      </trkpt>
      <trkpt lat="45.11363" lon="5.88318">
        <ele>1858.85</ele>
        <time>2016-12-10T15:33:10Z</time>
      </trkpt>
      <trkpt lat="45.11364" lon="5.88318">
        <ele>1858.85</ele>
        <time>2016-12-10T15:33:29Z</time>
      </trkpt>
      <trkpt lat="45.11363" lon="5.88316">
        <ele>1858.37</ele>
        <time>2016-12-10T15:33:55Z</time>
      </trkpt>
      <trkpt lat="45.11363" lon="5.88316">
        <ele>1858.85</ele>
        <time>2016-12-10T15:34:14Z</time>
      </trkpt>
      <trkpt lat="45.11363" lon="5.88316">
        <ele>1858.37</ele>
        <time>2016-12-10T15:34:32Z</time>
      </trkpt>
      <trkpt lat="45.11364" lon="5.88317">
        <ele>1858.85</ele>
        <time>2016-12-10T15:34:49Z</time>
      </trkpt>
      <trkpt lat="45.11363" lon="5.88317">
        <ele>1858.37</ele>
        <time>2016-12-10T15:35:13Z</time>
      </trkpt>
      <trkpt lat="45.11362" lon="5.88318">
        <ele>1858.37</ele>
        <time>2016-12-10T15:35:43Z</time>
      </trkpt>
      <trkpt lat="45.11362" lon="5.88318">
        <ele>1858.85</ele>
        <time>2016-12-10T15:35:51Z</time>
      </trkpt>
      <trkpt lat="45.11362" lon="5.88317">
        <ele>1858.85</ele>
        <time>2016-12-10T15:35:58Z</time>
      </trkpt>
      <trkpt lat="45.11361" lon="5.88317">
        <ele>1858.85</ele>
        <time>2016-12-10T15:36:05Z</time>
      </trkpt>
      <trkpt lat="45.11362" lon="5.88316">
        <ele>1858.37</ele>
        <time>2016-12-10T15:36:25Z</time>
      </trkpt>
      <trkpt lat="45.11362" lon="5.88316">
        <ele>1858.37</ele>
        <time>2016-12-10T15:36:44Z</time>
      </trkpt>
      <trkpt lat="45.11362" lon="5.88315">
        <ele>1858.37</ele>
        <time>2016-12-10T15:37:03Z</time>
      </trkpt>
      <trkpt lat="45.11362" lon="5.88315">
        <ele>1858.37</ele>
        <time>2016-12-10T15:37:18Z</time>
      </trkpt>
      <trkpt lat="45.1136" lon="5.88314">
        <ele>1857.89</ele>
        <time>2016-12-10T15:37:21Z</time>
      </trkpt>
      <trkpt lat="45.11352" lon="5.88305">
        <ele>1855</ele>
        <time>2016-12-10T15:37:30Z</time>
      </trkpt>
      <trkpt lat="45.11349" lon="5.88299">
        <ele>1854.52</ele>
        <time>2016-12-10T15:37:34Z</time>
      </trkpt>
      <trkpt lat="45.11349" lon="5.88296">
        <ele>1853.56</ele>
        <time>2016-12-10T15:37:36Z</time>
      </trkpt>
      <trkpt lat="45.11349" lon="5.88283">
        <ele>1850.19</ele>
        <time>2016-12-10T15:37:44Z</time>
      </trkpt>
      <trkpt lat="45.11349" lon="5.88273">
        <ele>1847.31</ele>
        <time>2016-12-10T15:37:51Z</time>
      </trkpt>
      <trkpt lat="45.11349" lon="5.88271">
        <ele>1846.83</ele>
        <time>2016-12-10T15:37:52Z</time>
      </trkpt>
      <trkpt lat="45.11348" lon="5.88263">
        <ele>1844.91</ele>
        <time>2016-12-10T15:37:57Z</time>
      </trkpt>
      <trkpt lat="45.11344" lon="5.88248">
        <ele>1841.06</ele>
        <time>2016-12-10T15:38:05Z</time>
      </trkpt>
      <trkpt lat="45.11342" lon="5.8824">
        <ele>1839.62</ele>
        <time>2016-12-10T15:38:10Z</time>
      </trkpt>
      <trkpt lat="45.11339" lon="5.88234">
        <ele>1837.7</ele>
        <time>2016-12-10T15:38:14Z</time>
      </trkpt>
      <trkpt lat="45.11333" lon="5.88228">
        <ele>1835.77</ele>
        <time>2016-12-10T15:38:19Z</time>
      </trkpt>
      <trkpt lat="45.11328" lon="5.88215">
        <ele>1832.89</ele>
        <time>2016-12-10T15:38:27Z</time>
      </trkpt>
      <trkpt lat="45.11323" lon="5.88197">
        <ele>1829.53</ele>
        <time>2016-12-10T15:38:36Z</time>
      </trkpt>
      <trkpt lat="45.11322" lon="5.88196">
        <ele>1829.53</ele>
        <time>2016-12-10T15:38:37Z</time>
      </trkpt>
      <trkpt lat="45.1132" lon="5.88185">
        <ele>1828.08</ele>
        <time>2016-12-10T15:38:42Z</time>
      </trkpt>
      <trkpt lat="45.11313" lon="5.88163">
        <ele>1824.72</ele>
        <time>2016-12-10T15:38:54Z</time>
      </trkpt>
      <trkpt lat="45.11312" lon="5.88145">
        <ele>1822.32</ele>
        <time>2016-12-10T15:39:03Z</time>
      </trkpt>
      <trkpt lat="45.11311" lon="5.88137">
        <ele>1820.87</ele>
        <time>2016-12-10T15:39:07Z</time>
      </trkpt>
      <trkpt lat="45.11308" lon="5.88114">
        <ele>1817.51</ele>
        <time>2016-12-10T15:39:19Z</time>
      </trkpt>
      <trkpt lat="45.11305" lon="5.88102">
        <ele>1814.15</ele>
        <time>2016-12-10T15:39:26Z</time>
      </trkpt>
      <trkpt lat="45.11299" lon="5.88089">
        <ele>1810.3</ele>
        <time>2016-12-10T15:39:34Z</time>
      </trkpt>
      <trkpt lat="45.11295" lon="5.88083">
        <ele>1808.38</ele>
        <time>2016-12-10T15:39:38Z</time>
      </trkpt>
      <trkpt lat="45.11292" lon="5.88075">
        <ele>1806.94</ele>
        <time>2016-12-10T15:39:42Z</time>
      </trkpt>
      <trkpt lat="45.11283" lon="5.88058">
        <ele>1804.05</ele>
        <time>2016-12-10T15:39:52Z</time>
      </trkpt>
      <trkpt lat="45.11278" lon="5.88045">
        <ele>1802.61</ele>
        <time>2016-12-10T15:39:59Z</time>
      </trkpt>
      <trkpt lat="45.11267" lon="5.88029">
        <ele>1800.69</ele>
        <time>2016-12-10T15:40:10Z</time>
      </trkpt>
      <trkpt lat="45.11258" lon="5.88014">
        <ele>1798.28</ele>
        <time>2016-12-10T15:40:19Z</time>
      </trkpt>
      <trkpt lat="45.11254" lon="5.88007">
        <ele>1797.32</ele>
        <time>2016-12-10T15:40:23Z</time>
      </trkpt>
      <trkpt lat="45.11248" lon="5.87998">
        <ele>1796.84</ele>
        <time>2016-12-10T15:40:29Z</time>
      </trkpt>
      <trkpt lat="45.11244" lon="5.87988">
        <ele>1796.36</ele>
        <time>2016-12-10T15:40:35Z</time>
      </trkpt>
      <trkpt lat="45.1124" lon="5.87978">
        <ele>1794.92</ele>
        <time>2016-12-10T15:40:41Z</time>
      </trkpt>
      <trkpt lat="45.11236" lon="5.87961">
        <ele>1792.52</ele>
        <time>2016-12-10T15:40:49Z</time>
      </trkpt>
      <trkpt lat="45.11236" lon="5.87958">
        <ele>1793</ele>
        <time>2016-12-10T15:40:51Z</time>
      </trkpt>
      <trkpt lat="45.11229" lon="5.87945">
        <ele>1790.59</ele>
        <time>2016-12-10T15:40:59Z</time>
      </trkpt>
      <trkpt lat="45.11222" lon="5.87918">
        <ele>1789.15</ele>
        <time>2016-12-10T15:41:13Z</time>
      </trkpt>
      <trkpt lat="45.11217" lon="5.87899">
        <ele>1787.71</ele>
        <time>2016-12-10T15:41:24Z</time>
      </trkpt>
      <trkpt lat="45.11216" lon="5.87899">
        <ele>1787.23</ele>
        <time>2016-12-10T15:41:29Z</time>
      </trkpt>
      <trkpt lat="45.11207" lon="5.87894">
        <ele>1785.79</ele>
        <time>2016-12-10T15:41:38Z</time>
      </trkpt>
      <trkpt lat="45.11203" lon="5.87884">
        <ele>1783.86</ele>
        <time>2016-12-10T15:41:45Z</time>
      </trkpt>
      <trkpt lat="45.11201" lon="5.87868">
        <ele>1782.9</ele>
        <time>2016-12-10T15:41:54Z</time>
      </trkpt>
      <trkpt lat="45.11201" lon="5.8786">
        <ele>1783.38</ele>
        <time>2016-12-10T15:42:04Z</time>
      </trkpt>
      <trkpt lat="45.11202" lon="5.87858">
        <ele>1782.42</ele>
        <time>2016-12-10T15:42:14Z</time>
      </trkpt>
      <trkpt lat="45.11202" lon="5.87858">
        <ele>1775.69</ele>
        <time>2016-12-10T15:42:21Z</time>
      </trkpt>
      <trkpt lat="45.11202" lon="5.87858">
        <ele>1780.98</ele>
        <time>2016-12-10T15:42:22Z</time>
      </trkpt>
      <trkpt lat="45.11202" lon="5.87858">
        <ele>1785.79</ele>
        <time>2016-12-10T15:42:25Z</time>
      </trkpt>
      <trkpt lat="45.11202" lon="5.87858">
        <ele>1784.34</ele>
        <time>2016-12-10T15:42:26Z</time>
      </trkpt>
      <trkpt lat="45.11202" lon="5.87858">
        <ele>1783.38</ele>
        <time>2016-12-10T15:42:28Z</time>
      </trkpt>
    </trkseg>
  </trk>
</gpx>